Observation data for Lesley on 10/18/2019      Previous  Date       Current Mesonet Observations  Soil Data  Daily Summary Page  Observations in Plain Language
KLE1 180500Z 16011KT 17/02 A2982 RMK A01 T01730019  RH  035%=      5-min Rain = 0
KLE1 180501Z 16011KT 17/02 A2982 RMK A01 T01730019  RH  036%=      5-min Rain = 0
KLE1 180502Z 16011KT 17/02 A2982 RMK A01 T01730019  RH  036%=      5-min Rain = 0
KLE1 180503Z 16010KT 17/02 A2982 RMK A01 T01730019  RH  035%=      5-min Rain = 0
KLE1 180504Z 17012G17KT 17/02 A2982 RMK A01 T01730020  RH  036%=      5-min Rain = 0
KLE1 180505Z 16012KT 17/02 A2982 RMK A01 T01730020  RH  036%=      5-min Rain = 0
KLE1 180506Z 16009KT 17/02 A2982 RMK A01 T01740020  RH  036%=      5-min Rain = 0
KLE1 180507Z 17010KT 17/02 A2982 RMK A01 T01730020  RH  036%=      5-min Rain = 0
KLE1 180508Z 17011G16KT 17/02 A2982 RMK A01 T01720020  RH  036%=      5-min Rain = 0
KLE1 180509Z 17012KT 17/02 A2982 RMK A01 T01720020  RH  036%=      5-min Rain = 0
KLE1 180510Z 17011KT 17/02 A2982 RMK A01 T01730020  RH  036%=      5-min Rain = 0
KLE1 180511Z 17011KT 17/02 A2982 RMK A01 T01730021  RH  036%=      5-min Rain = 0
KLE1 180512Z 17012KT 17/02 A2982 RMK A01 T01720021  RH  036%=      5-min Rain = 0
KLE1 180513Z 17012KT 17/02 A2982 RMK A01 T01720021  RH  036%=      5-min Rain = 0
KLE1 180514Z 17011KT 17/02 A2982 RMK A01 T01710021  RH  036%=      5-min Rain = 0
KLE1 180515Z 17010KT 17/02 A2982 RMK A01 T01710021  RH  036%=      5-min Rain = 0
KLE1 180516Z 17010KT 17/02 A2982 RMK A01 T01710022  RH  037%=      5-min Rain = 0
KLE1 180517Z 17011KT 17/02 A2982 RMK A01 T01710021  RH  037%=      5-min Rain = 0
KLE1 180518Z 17009KT 17/02 A2982 RMK A01 T01710021  RH  037%=      5-min Rain = 0
KLE1 180519Z 17009KT 17/02 A2982 RMK A01 T01700022  RH  037%=      5-min Rain = 0
KLE1 180520Z 17009KT 17/02 A2982 RMK A01 T01690022  RH  037%=      5-min Rain = 0
KLE1 180521Z 17009KT 17/02 A2982 RMK A01 T01680022  RH  037%=      5-min Rain = 0
KLE1 180522Z 17009KT 17/02 A2982 RMK A01 T01670022  RH  038%=      5-min Rain = 0
KLE1 180523Z 17009KT 17/02 A2982 RMK A01 T01670022  RH  038%=      5-min Rain = 0
KLE1 180524Z 17009KT 17/02 A2982 RMK A01 T01660022  RH  038%=      5-min Rain = 0
KLE1 180525Z 17009KT 17/02 A2982 RMK A01 T01660023  RH  038%=      5-min Rain = 0
KLE1 180526Z 17010KT 17/02 A2982 RMK A01 T01660023  RH  038%=      5-min Rain = 0
KLE1 180527Z 17009KT 17/02 A2982 RMK A01 T01660023  RH  038%=      5-min Rain = 0
KLE1 180528Z 17010KT 17/02 A2982 RMK A01 T01650023  RH  038%=      5-min Rain = 0
KLE1 180529Z 16009KT 17/02 A2982 RMK A01 T01650023  RH  038%=      5-min Rain = 0
KLE1 180530Z 17009KT 17/02 A2982 RMK A01 T01650023  RH  038%=      5-min Rain = 0
KLE1 180531Z 16008KT 17/02 A2982 RMK A01 T01650023  RH  039%=      5-min Rain = 0
KLE1 180532Z 16008KT 16/02 A2982 RMK A01 T01630023  RH  039%=      5-min Rain = 0
KLE1 180533Z 16010KT 16/02 A2982 RMK A01 T01630023  RH  039%=      5-min Rain = 0
KLE1 180534Z 16011KT 16/02 A2981 RMK A01 T01630023  RH  039%=      5-min Rain = 0
KLE1 180535Z 16010KT 16/02 A2981 RMK A01 T01630024  RH  039%=      5-min Rain = 0
KLE1 180536Z 16010KT 16/02 A2981 RMK A01 T01620024  RH  039%=      5-min Rain = 0
KLE1 180537Z 16009KT 16/02 A2981 RMK A01 T01620024  RH  039%=      5-min Rain = 0
KLE1 180538Z 16010KT 16/02 A2981 RMK A01 T01620024  RH  039%=      5-min Rain = 0
KLE1 180539Z 16012KT 16/02 A2981 RMK A01 T01610024  RH  040%=      5-min Rain = 0
KLE1 180540Z 16011KT 16/02 A2981 RMK A01 T01620024  RH  040%=      5-min Rain = 0
KLE1 180541Z 16010KT 16/03 A2981 RMK A01 T01630025  RH  039%=      5-min Rain = 0
KLE1 180542Z 16011KT 16/02 A2981 RMK A01 T01630024  RH  039%=      5-min Rain = 0
KLE1 180543Z 16009KT 16/02 A2981 RMK A01 T01620024  RH  039%=      5-min Rain = 0
KLE1 180544Z 17010KT 16/02 A2981 RMK A01 T01620024  RH  040%=      5-min Rain = 0
KLE1 180545Z 17009KT 16/02 A2981 RMK A01 T01620024  RH  040%=      5-min Rain = 0
KLE1 180546Z 17009KT 16/02 A2981 RMK A01 T01620024  RH  040%=      5-min Rain = 0
KLE1 180547Z 17009KT 16/02 A2981 RMK A01 T01620024  RH  040%=      5-min Rain = 0
KLE1 180548Z 18009KT 16/02 A2981 RMK A01 T01610024  RH  040%=      5-min Rain = 0
KLE1 180549Z 18010KT 16/02 A2982 RMK A01 T01620024  RH  040%=      5-min Rain = 0
KLE1 180550Z 18008KT 16/03 A2982 RMK A01 T01630025  RH  039%=      5-min Rain = 0
KLE1 180551Z 19007KT 16/03 A2982 RMK A01 T01630025  RH  039%=      5-min Rain = 0
KLE1 180552Z 19008KT 16/02 A2982 RMK A01 T01620024  RH  040%=      5-min Rain = 0
KLE1 180553Z 19008KT 16/03 A2982 RMK A01 T01620025  RH  040%=      5-min Rain = 0
KLE1 180554Z 18009KT 16/03 A2982 RMK A01 T01620025  RH  040%=      5-min Rain = 0
KLE1 180555Z 18009KT 16/03 A2982 RMK A01 T01630025  RH  040%=      5-min Rain = 0
KLE1 180556Z 19009KT 16/03 A2982 RMK A01 T01630025  RH  039%=      5-min Rain = 0
KLE1 180557Z 18009KT 16/03 A2982 RMK A01 T01640025  RH  039%=      5-min Rain = 0
KLE1 180558Z 18008KT 16/03 A2982 RMK A01 T01640025  RH  039%=      5-min Rain = 0
KLE1 180559Z 18008KT 16/03 A2982 RMK A01 T01630025  RH  039%=      5-min Rain = 0
KLE1 180600Z 18008KT 16/03 A2982 RMK A01 T01630025  RH  040%=      5-min Rain = 0
KLE1 180601Z 18008KT 16/03 A2982 RMK A01 T01620025  RH  040%=      5-min Rain = 0
KLE1 180602Z 18008KT 16/03 A2982 RMK A01 T01620025  RH  040%=      5-min Rain = 0
KLE1 180603Z 18008KT 16/03 A2982 RMK A01 T01610025  RH  040%=      5-min Rain = 0
KLE1 180604Z 18008KT 16/03 A2982 RMK A01 T01600025  RH  040%=      5-min Rain = 0
KLE1 180605Z 17008KT 16/03 A2982 RMK A01 T01600025  RH  040%=      5-min Rain = 0
KLE1 180606Z 17009KT 16/03 A2982 RMK A01 T01590025  RH  040%=      5-min Rain = 0
KLE1 180607Z 17008KT 16/03 A2982 RMK A01 T01590025  RH  040%=      5-min Rain = 0
KLE1 180608Z 17010KT 16/03 A2982 RMK A01 T01600026  RH  040%=      5-min Rain = 0
KLE1 180609Z 18008KT 16/03 A2982 RMK A01 T01610025  RH  040%=      5-min Rain = 0
KLE1 180610Z 17009KT 16/03 A2982 RMK A01 T01610025  RH  040%=      5-min Rain = 0
KLE1 180611Z 17008KT 16/03 A2982 RMK A01 T01610025  RH  040%=      5-min Rain = 0
KLE1 180612Z 17009KT 16/03 A2982 RMK A01 T01600025  RH  040%=      5-min Rain = 0
KLE1 180613Z 17009KT 16/03 A2982 RMK A01 T01590025  RH  040%=      5-min Rain = 0
KLE1 180614Z 17009KT 16/03 A2982 RMK A01 T01580025  RH  041%=      5-min Rain = 0
KLE1 180615Z 16010KT 16/03 A2982 RMK A01 T01580025  RH  041%=      5-min Rain = 0
KLE1 180616Z 17010KT 16/03 A2982 RMK A01 T01580026  RH  041%=      5-min Rain = 0
KLE1 180617Z 16010KT 16/03 A2982 RMK A01 T01580025  RH  041%=      5-min Rain = 0
KLE1 180618Z 17010KT 16/03 A2981 RMK A01 T01570025  RH  041%=      5-min Rain = 0
KLE1 180619Z 17010KT 16/03 A2981 RMK A01 T01570025  RH  041%=      5-min Rain = 0
KLE1 180620Z 16009KT 16/03 A2981 RMK A01 T01570025  RH  041%=      5-min Rain = 0
KLE1 180621Z 17009KT 16/03 A2981 RMK A01 T01560025  RH  041%=      5-min Rain = 0
KLE1 180622Z 17009KT 16/03 A2981 RMK A01 T01550025  RH  042%=      5-min Rain = 0
KLE1 180623Z 17009KT 15/03 A2981 RMK A01 T01540025  RH  042%=      5-min Rain = 0
KLE1 180624Z 16009KT 15/03 A2981 RMK A01 T01540025  RH  042%=      5-min Rain = 0
KLE1 180625Z 16009KT 15/03 A2981 RMK A01 T01540025  RH  042%=      5-min Rain = 0
KLE1 180626Z 16009KT 15/03 A2981 RMK A01 T01530025  RH  042%=      5-min Rain = 0
KLE1 180627Z 16009KT 15/03 A2981 RMK A01 T01530025  RH  042%=      5-min Rain = 0
KLE1 180628Z 16009KT 15/03 A2981 RMK A01 T01530025  RH  042%=      5-min Rain = 0
KLE1 180629Z 16009KT 15/03 A2981 RMK A01 T01530025  RH  042%=      5-min Rain = 0
KLE1 180630Z 16008KT 15/03 A2981 RMK A01 T01520025  RH  042%=      5-min Rain = 0
KLE1 180631Z 16008KT 15/03 A2981 RMK A01 T01520025  RH  042%=      5-min Rain = 0
KLE1 180632Z 16008KT 15/03 A2981 RMK A01 T01510025  RH  042%=      5-min Rain = 0
KLE1 180633Z 16008KT 15/03 A2981 RMK A01 T01510025  RH  042%=      5-min Rain = 0
KLE1 180634Z 16008KT 15/02 A2981 RMK A01 T01510024  RH  042%=      5-min Rain = 0
KLE1 180635Z 16008KT 15/03 A2981 RMK A01 T01510025  RH  043%=      5-min Rain = 0
KLE1 180636Z 16008KT 15/02 A2981 RMK A01 T01510024  RH  043%=      5-min Rain = 0
KLE1 180637Z 16008KT 15/02 A2981 RMK A01 T01500024  RH  043%=      5-min Rain = 0
KLE1 180638Z 16008KT 15/02 A2981 RMK A01 T01510024  RH  043%=      5-min Rain = 0
KLE1 180639Z 16008KT 15/02 A2981 RMK A01 T01500024  RH  043%=      5-min Rain = 0
KLE1 180640Z 16008KT 15/02 A2981 RMK A01 T01500024  RH  043%=      5-min Rain = 0
KLE1 180641Z 16008KT 15/02 A2981 RMK A01 T01490024  RH  043%=      5-min Rain = 0
KLE1 180642Z 16008KT 15/03 A2981 RMK A01 T01490025  RH  043%=      5-min Rain = 0
KLE1 180643Z 16008KT 15/02 A2981 RMK A01 T01490024  RH  043%=      5-min Rain = 0
KLE1 180644Z 15008KT 15/02 A2981 RMK A01 T01490024  RH  043%=      5-min Rain = 0
KLE1 180645Z 15007KT 15/02 A2981 RMK A01 T01480024  RH  043%=      5-min Rain = 0
KLE1 180646Z 15008KT 15/02 A2981 RMK A01 T01480024  RH  043%=      5-min Rain = 0
KLE1 180647Z 15007KT 15/02 A2981 RMK A01 T01480024  RH  043%=      5-min Rain = 0
KLE1 180648Z 15007KT 15/02 A2981 RMK A01 T01470024  RH  043%=      5-min Rain = 0
KLE1 180649Z 15006KT 15/02 A2981 RMK A01 T01470024  RH  043%=      5-min Rain = 0
KLE1 180650Z 16007KT 15/02 A2981 RMK A01 T01470024  RH  043%=      5-min Rain = 0
KLE1 180651Z 16007KT 15/02 A2981 RMK A01 T01470024  RH  043%=      5-min Rain = 0
KLE1 180652Z 16007KT 15/02 A2981 RMK A01 T01470024  RH  043%=      5-min Rain = 0
KLE1 180653Z 15007KT 15/02 A2981 RMK A01 T01460024  RH  043%=      5-min Rain = 0
KLE1 180654Z 16007KT 15/02 A2981 RMK A01 T01470024  RH  043%=      5-min Rain = 0
KLE1 180655Z 16007KT 15/02 A2981 RMK A01 T01470023  RH  043%=      5-min Rain = 0
KLE1 180656Z 16007KT 15/02 A2981 RMK A01 T01480024  RH  043%=      5-min Rain = 0
KLE1 180657Z 16007KT 15/02 A2981 RMK A01 T01480024  RH  043%=      5-min Rain = 0
KLE1 180658Z 16007KT 15/02 A2981 RMK A01 T01480024  RH  043%=      5-min Rain = 0
KLE1 180659Z 16007KT 15/02 A2981 RMK A01 T01480024  RH  043%=      5-min Rain = 0
KLE1 180700Z 16006KT 15/02 A2981 RMK A01 T01480024  RH  043%=      5-min Rain = 0
KLE1 180701Z 16007KT 15/02 A2981 RMK A01 T01480024  RH  043%=      5-min Rain = 0
KLE1 180702Z 16006KT 15/02 A2981 RMK A01 T01470023  RH  043%=      5-min Rain = 0
KLE1 180703Z 16007KT 15/02 A2981 RMK A01 T01460023  RH  043%=      5-min Rain = 0
KLE1 180704Z 16007KT 15/02 A2981 RMK A01 T01460023  RH  043%=      5-min Rain = 0
KLE1 180705Z 16007KT 15/02 A2981 RMK A01 T01460023  RH  043%=      5-min Rain = 0
KLE1 180706Z 16006KT 15/02 A2981 RMK A01 T01460023  RH  043%=      5-min Rain = 0
KLE1 180707Z 16007KT 15/02 A2981 RMK A01 T01460023  RH  043%=      5-min Rain = 0
KLE1 180708Z 16007KT 15/02 A2981 RMK A01 T01460023  RH  043%=      5-min Rain = 0
KLE1 180709Z 16007KT 15/02 A2981 RMK A01 T01460023  RH  044%=      5-min Rain = 0
KLE1 180710Z 16007KT 15/02 A2981 RMK A01 T01450023  RH  044%=      5-min Rain = 0
KLE1 180711Z 16007KT 15/02 A2981 RMK A01 T01450023  RH  044%=      5-min Rain = 0
KLE1 180712Z 16007KT 15/02 A2981 RMK A01 T01450023  RH  044%=      5-min Rain = 0
KLE1 180713Z 15007KT 14/02 A2981 RMK A01 T01440023  RH  044%=      5-min Rain = 0
KLE1 180714Z 15007KT 14/02 A2981 RMK A01 T01440023  RH  044%=      5-min Rain = 0
KLE1 180715Z 15007KT 14/02 A2981 RMK A01 T01430023  RH  044%=      5-min Rain = 0
KLE1 180716Z 15007KT 14/02 A2981 RMK A01 T01430023  RH  044%=      5-min Rain = 0
KLE1 180717Z 15007KT 14/02 A2981 RMK A01 T01430024  RH  045%=      5-min Rain = 0
KLE1 180718Z 15007KT 14/02 A298 RMK A01 T01420023  RH  045%=      5-min Rain = 0
KLE1 180719Z 15008KT 14/02 A298 RMK A01 T01420023  RH  045%=      5-min Rain = 0
KLE1 180720Z 15008KT 14/02 A298 RMK A01 T01410023  RH  045%=      5-min Rain = 0
KLE1 180721Z 15007KT 14/02 A298 RMK A01 T01410023  RH  045%=      5-min Rain = 0
KLE1 180722Z 15008KT 14/02 A298 RMK A01 T01400023  RH  045%=      5-min Rain = 0
KLE1 180723Z 15008KT 14/02 A298 RMK A01 T01410024  RH  045%=      5-min Rain = 0
KLE1 180724Z 15007KT 14/02 A298 RMK A01 T01410024  RH  045%=      5-min Rain = 0
KLE1 180725Z 16007KT 14/02 A298 RMK A01 T01410024  RH  045%=      5-min Rain = 0
KLE1 180726Z 16007KT 14/02 A298 RMK A01 T01410023  RH  045%=      5-min Rain = 0
KLE1 180727Z 15007KT 14/02 A298 RMK A01 T01400023  RH  045%=      5-min Rain = 0
KLE1 180728Z 15007KT 14/02 A298 RMK A01 T01400023  RH  045%=      5-min Rain = 0
KLE1 180729Z 15007KT 14/02 A298 RMK A01 T01400024  RH  045%=      5-min Rain = 0
KLE1 180730Z 15007KT 14/02 A298 RMK A01 T01400023  RH  045%=      5-min Rain = 0
KLE1 180731Z 15007KT 14/02 A298 RMK A01 T01400023  RH  045%=      5-min Rain = 0
KLE1 180732Z 15007KT 14/02 A298 RMK A01 T01400024  RH  045%=      5-min Rain = 0
KLE1 180733Z 15007KT 14/02 A298 RMK A01 T01400024  RH  045%=      5-min Rain = 0
KLE1 180734Z 15007KT 14/02 A298 RMK A01 T01400024  RH  045%=      5-min Rain = 0
KLE1 180735Z 15007KT 14/02 A298 RMK A01 T01390023  RH  045%=      5-min Rain = 0
KLE1 180736Z 16006KT 14/02 A298 RMK A01 T01400024  RH  045%=      5-min Rain = 0
KLE1 180737Z 15006KT 14/02 A298 RMK A01 T01400023  RH  045%=      5-min Rain = 0
KLE1 180738Z 15006KT 14/02 A298 RMK A01 T01390023  RH  045%=      5-min Rain = 0
KLE1 180739Z 15006KT 14/02 A298 RMK A01 T01390024  RH  046%=      5-min Rain = 0
KLE1 180740Z 15006KT 14/02 A298 RMK A01 T01390024  RH  046%=      5-min Rain = 0
KLE1 180741Z 15007KT 14/02 A298 RMK A01 T01390024  RH  046%=      5-min Rain = 0
KLE1 180742Z 15006KT 14/02 A298 RMK A01 T01390024  RH  046%=      5-min Rain = 0
KLE1 180743Z 15007KT 14/02 A298 RMK A01 T01390024  RH  046%=      5-min Rain = 0
KLE1 180744Z 15007KT 14/02 A298 RMK A01 T01380024  RH  046%=      5-min Rain = 0
KLE1 180745Z 14006KT 14/02 A298 RMK A01 T01380024  RH  046%=      5-min Rain = 0
KLE1 180746Z 15006KT 14/02 A298 RMK A01 T01380023  RH  046%=      5-min Rain = 0
KLE1 180747Z 14005KT 14/02 A298 RMK A01 T01370024  RH  046%=      5-min Rain = 0
KLE1 180748Z 14004KT 14/02 A298 RMK A01 T01360024  RH  046%=      5-min Rain = 0
KLE1 180749Z 13004KT 14/02 A298 RMK A01 T01350023  RH  047%=      5-min Rain = 0
KLE1 180750Z 12003KT 14/02 A298 RMK A01 T01350024  RH  047%=      5-min Rain = 0
KLE1 180751Z 12002KT 14/02 A298 RMK A01 T01350023  RH  047%=      5-min Rain = 0
KLE1 180752Z 12003KT 14/02 A298 RMK A01 T01350023  RH  047%=      5-min Rain = 0
KLE1 180753Z 11003KT 13/02 A298 RMK A01 T01340023  RH  047%=      5-min Rain = 0
KLE1 180754Z 11002KT 13/02 A298 RMK A01 T01330023  RH  047%=      5-min Rain = 0
KLE1 180755Z 09002KT 13/02 A298 RMK A01 T01330023  RH  047%=      5-min Rain = 0
KLE1 180756Z 08002KT 13/02 A298 RMK A01 T01320023  RH  047%=      5-min Rain = 0
KLE1 180757Z 09002KT 13/02 A298 RMK A01 T01320023  RH  047%=      5-min Rain = 0
KLE1 180758Z 11002KT 13/02 A298 RMK A01 T01320023  RH  047%=      5-min Rain = 0
KLE1 180759Z 10003KT 13/02 A298 RMK A01 T01340023  RH  047%=      5-min Rain = 0
KLE1 180800Z 08002KT 14/02 A298 RMK A01 T01350024  RH  047%=      5-min Rain = 0
KLE1 180801Z 14006KT 14/02 A298 RMK A01 T01360023  RH  047%=      5-min Rain = 0
KLE1 180802Z 15005KT 14/03 A298 RMK A01 T01390026  RH  046%=      5-min Rain = 0
KLE1 180803Z 17003KT 14/03 A298 RMK A01 T01410025  RH  046%=      5-min Rain = 0
KLE1 180804Z 16003KT 14/03 A298 RMK A01 T01420025  RH  045%=      5-min Rain = 0
KLE1 180805Z 14003KT 14/03 A298 RMK A01 T01420025  RH  045%=      5-min Rain = 0
KLE1 180806Z 12004KT 14/03 A298 RMK A01 T01420025  RH  045%=      5-min Rain = 0
KLE1 180807Z 15005KT 14/03 A298 RMK A01 T01410025  RH  045%=      5-min Rain = 0
KLE1 180808Z 14003KT 14/02 A298 RMK A01 T01410024  RH  045%=      5-min Rain = 0
KLE1 180809Z 14005KT 14/03 A298 RMK A01 T01420025  RH  045%=      5-min Rain = 0
KLE1 180810Z 14006KT 14/03 A298 RMK A01 T01440026  RH  045%=      5-min Rain = 0
KLE1 180811Z 14005KT 15/03 A298 RMK A01 T01450026  RH  045%=      5-min Rain = 0
KLE1 180812Z 12004KT 15/03 A298 RMK A01 T01450025  RH  044%=      5-min Rain = 0
KLE1 180813Z 11004KT 14/03 A298 RMK A01 T01440025  RH  044%=      5-min Rain = 0
KLE1 180814Z 10003KT 14/02 A298 RMK A01 T01430024  RH  045%=      5-min Rain = 0
KLE1 180815Z 12004KT 14/02 A298 RMK A01 T01420024  RH  045%=      5-min Rain = 0
KLE1 180816Z 12004KT 14/02 A298 RMK A01 T01400024  RH  045%=      5-min Rain = 0
KLE1 180817Z 11004KT 14/02 A298 RMK A01 T01400024  RH  045%=      5-min Rain = 0
KLE1 180818Z 10003KT 14/02 A298 RMK A01 T01400024  RH  045%=      5-min Rain = 0
KLE1 180819Z 07003KT 14/02 A298 RMK A01 T01410024  RH  045%=      5-min Rain = 0
KLE1 180820Z 07003KT 14/02 A298 RMK A01 T01410024  RH  045%=      5-min Rain = 0
KLE1 180821Z 09003KT 14/02 A298 RMK A01 T01400024  RH  045%=      5-min Rain = 0
KLE1 180822Z 08004KT 14/02 A298 RMK A01 T01380023  RH  046%=      5-min Rain = 0
KLE1 180823Z 08004KT 14/02 A298 RMK A01 T01370023  RH  046%=      5-min Rain = 0
KLE1 180824Z 08003KT 14/02 A298 RMK A01 T01380023  RH  046%=      5-min Rain = 0
KLE1 180825Z 05003KT 14/02 A298 RMK A01 T01390024  RH  046%=      5-min Rain = 0
KLE1 180826Z 05003KT 14/02 A298 RMK A01 T01380023  RH  046%=      5-min Rain = 0
KLE1 180827Z 05003KT 14/02 A298 RMK A01 T01380024  RH  046%=      5-min Rain = 0
KLE1 180828Z 06003KT 14/02 A298 RMK A01 T01380024  RH  046%=      5-min Rain = 0
KLE1 180829Z 06003KT 14/02 A298 RMK A01 T01380023  RH  046%=      5-min Rain = 0
KLE1 180830Z 06003KT 14/02 A298 RMK A01 T01390024  RH  046%=      5-min Rain = 0
KLE1 180831Z 07003KT 14/02 A298 RMK A01 T01400024  RH  045%=      5-min Rain = 0
KLE1 180832Z 07003KT 14/02 A2979 RMK A01 T01400023  RH  045%=      5-min Rain = 0
KLE1 180833Z 08004KT 14/02 A2979 RMK A01 T01400024  RH  045%=      5-min Rain = 0
KLE1 180834Z 08004KT 14/02 A2979 RMK A01 T01410024  RH  045%=      5-min Rain = 0
KLE1 180835Z 07003KT 14/02 A2979 RMK A01 T01440024  RH  044%=      5-min Rain = 0
KLE1 180836Z 07004KT 15/02 A2979 RMK A01 T01450024  RH  044%=      5-min Rain = 0
KLE1 180837Z 08004KT 15/02 A2979 RMK A01 T01450023  RH  044%=      5-min Rain = 0
KLE1 180838Z 08003KT 14/02 A2979 RMK A01 T01440024  RH  044%=      5-min Rain = 0
KLE1 180839Z 09003KT 14/02 A2979 RMK A01 T01410024  RH  045%=      5-min Rain = 0
KLE1 180840Z 10003KT 14/02 A2979 RMK A01 T01390023  RH  045%=      5-min Rain = 0
KLE1 180841Z 10003KT 14/02 A2979 RMK A01 T01400024  RH  045%=      5-min Rain = 0
KLE1 180842Z 10004KT 14/02 A2979 RMK A01 T01410024  RH  045%=      5-min Rain = 0
KLE1 180843Z 10004KT 14/02 A2979 RMK A01 T01410024  RH  045%=      5-min Rain = 0
KLE1 180844Z 10004KT 14/02 A2979 RMK A01 T01410024  RH  045%=      5-min Rain = 0
KLE1 180845Z 10004KT 14/02 A2979 RMK A01 T01400023  RH  045%=      5-min Rain = 0
KLE1 180846Z 10004KT 14/02 A2979 RMK A01 T01420024  RH  045%=      5-min Rain = 0
KLE1 180847Z 10004KT 14/02 A2979 RMK A01 T01440023  RH  044%=      5-min Rain = 0
KLE1 180848Z 10004KT 14/02 A2979 RMK A01 T01440024  RH  044%=      5-min Rain = 0
KLE1 180849Z 11004KT 14/02 A2979 RMK A01 T01430023  RH  044%=      5-min Rain = 0
KLE1 180850Z 10003KT 14/02 A2979 RMK A01 T01420023  RH  045%=      5-min Rain = 0
KLE1 180851Z 10003KT 14/02 A2979 RMK A01 T01420024  RH  045%=      5-min Rain = 0
KLE1 180852Z 11003KT 14/02 A2979 RMK A01 T01420023  RH  045%=      5-min Rain = 0
KLE1 180853Z 10003KT 14/02 A2979 RMK A01 T01420023  RH  045%=      5-min Rain = 0
KLE1 180854Z 10003KT 14/02 A2979 RMK A01 T01420023  RH  044%=      5-min Rain = 0
KLE1 180855Z 10003KT 14/02 A2979 RMK A01 T01430023  RH  044%=      5-min Rain = 0
KLE1 180856Z 10003KT 14/02 A2979 RMK A01 T01430023  RH  044%=      5-min Rain = 0
KLE1 180857Z 10003KT 14/02 A2979 RMK A01 T01430023  RH  044%=      5-min Rain = 0
KLE1 180858Z 10003KT 14/02 A2979 RMK A01 T01430023  RH  044%=      5-min Rain = 0
KLE1 180859Z 10003KT 14/02 A2979 RMK A01 T01440023  RH  044%=      5-min Rain = 0
KLE1 180900Z 10003KT 14/02 A2978 RMK A01 T01440023  RH  044%=      5-min Rain = 0
KLE1 180901Z 08004KT 14/02 A2978 RMK A01 T01440023  RH  044%=      5-min Rain = 0
KLE1 180902Z 09004KT 14/02 A2978 RMK A01 T01430023  RH  044%=      5-min Rain = 0
KLE1 180903Z 08004KT 14/02 A2978 RMK A01 T01420023  RH  044%=      5-min Rain = 0
KLE1 180904Z 08003KT 14/02 A2978 RMK A01 T01420023  RH  045%=      5-min Rain = 0
KLE1 180905Z 08003KT 14/02 A2978 RMK A01 T01410023  RH  045%=      5-min Rain = 0
KLE1 180906Z 08003KT 14/02 A2979 RMK A01 T01400023  RH  045%=      5-min Rain = 0
KLE1 180907Z 08004KT 14/02 A2978 RMK A01 T01390023  RH  045%=      5-min Rain = 0
KLE1 180908Z 07004KT 14/02 A2978 RMK A01 T01380023  RH  046%=      5-min Rain = 0
KLE1 180909Z 06004KT 14/02 A2978 RMK A01 T01370024  RH  046%=      5-min Rain = 0
KLE1 180910Z 05004KT 14/02 A2978 RMK A01 T01350024  RH  047%=      5-min Rain = 0
KLE1 180911Z 05004KT 13/02 A2978 RMK A01 T01310024  RH  048%=      5-min Rain = 0
KLE1 180912Z 05005KT 13/03 A2978 RMK A01 T01280025  RH  049%=      5-min Rain = 0
KLE1 180913Z 06005KT 13/03 A2978 RMK A01 T01250025  RH  050%=      5-min Rain = 0
KLE1 180914Z 05005KT 12/03 A2978 RMK A01 T01240025  RH  051%=      5-min Rain = 0
KLE1 180915Z 05005KT 12/03 A2978 RMK A01 T01240025  RH  051%=      5-min Rain = 0
KLE1 180916Z 05005KT 12/03 A2978 RMK A01 T01240025  RH  051%=      5-min Rain = 0
KLE1 180917Z 05005KT 12/03 A2978 RMK A01 T01240025  RH  051%=      5-min Rain = 0
KLE1 180918Z 05005KT 12/03 A2978 RMK A01 T01240025  RH  051%=      5-min Rain = 0
KLE1 180919Z 05005KT 12/03 A2978 RMK A01 T01240025  RH  051%=      5-min Rain = 0
KLE1 180920Z 05005KT 12/03 A2978 RMK A01 T01240025  RH  051%=      5-min Rain = 0
KLE1 180921Z 05004KT 13/02 A2978 RMK A01 T01250024  RH  050%=      5-min Rain = 0
KLE1 180922Z 06004KT 13/02 A2978 RMK A01 T01250024  RH  050%=      5-min Rain = 0
KLE1 180923Z 06004KT 13/02 A2978 RMK A01 T01260024  RH  050%=      5-min Rain = 0
KLE1 180924Z 06004KT 13/02 A2978 RMK A01 T01260024  RH  050%=      5-min Rain = 0
KLE1 180925Z 06004KT 13/02 A2978 RMK A01 T01270024  RH  049%=      5-min Rain = 0
KLE1 180926Z 07004KT 13/02 A2978 RMK A01 T01280024  RH  049%=      5-min Rain = 0
KLE1 180927Z 07004KT 13/02 A2978 RMK A01 T01290024  RH  049%=      5-min Rain = 0
KLE1 180928Z 07004KT 13/02 A2978 RMK A01 T01300024  RH  049%=      5-min Rain = 0
KLE1 180929Z 07004KT 13/02 A2978 RMK A01 T01310024  RH  048%=      5-min Rain = 0
KLE1 180930Z 06005KT 13/02 A2978 RMK A01 T01310024  RH  048%=      5-min Rain = 0
KLE1 180931Z 06005KT 13/02 A2977 RMK A01 T01300024  RH  048%=      5-min Rain = 0
KLE1 180932Z 06005KT 13/02 A2977 RMK A01 T01290024  RH  049%=      5-min Rain = 0
KLE1 180933Z 06005KT 13/02 A2977 RMK A01 T01280024  RH  049%=      5-min Rain = 0
KLE1 180934Z 07005KT 13/02 A2977 RMK A01 T01260023  RH  050%=      5-min Rain = 0
KLE1 180935Z 07005KT 13/02 A2977 RMK A01 T01260023  RH  050%=      5-min Rain = 0
KLE1 180936Z 07004KT 13/02 A2977 RMK A01 T01260023  RH  050%=      5-min Rain = 0
KLE1 180937Z 08004KT 13/02 A2977 RMK A01 T01270024  RH  049%=      5-min Rain = 0
KLE1 180938Z 07004KT 13/02 A2977 RMK A01 T01290023  RH  049%=      5-min Rain = 0
KLE1 180939Z 08005KT 13/02 A2977 RMK A01 T01300024  RH  048%=      5-min Rain = 0
KLE1 180940Z 08004KT 13/02 A2977 RMK A01 T01300024  RH  048%=      5-min Rain = 0
KLE1 180941Z 08005KT 13/02 A2977 RMK A01 T01290024  RH  049%=      5-min Rain = 0
KLE1 180942Z 08005KT 13/02 A2977 RMK A01 T01280024  RH  049%=      5-min Rain = 0
KLE1 180943Z 08005KT 13/02 A2977 RMK A01 T01260024  RH  050%=      5-min Rain = 0
KLE1 180944Z 08005KT 12/02 A2977 RMK A01 T01240024  RH  050%=      5-min Rain = 0
KLE1 180945Z 07005KT 12/02 A2977 RMK A01 T01230024  RH  051%=      5-min Rain = 0
KLE1 180946Z 07005KT 12/02 A2977 RMK A01 T01230023  RH  051%=      5-min Rain = 0
KLE1 180947Z 08005KT 12/02 A2977 RMK A01 T01220024  RH  051%=      5-min Rain = 0
KLE1 180948Z 07005KT 12/02 A2977 RMK A01 T01220024  RH  051%=      5-min Rain = 0
KLE1 180949Z 07005KT 12/02 A2977 RMK A01 T01210023  RH  051%=      5-min Rain = 0
KLE1 180950Z 07006KT 12/02 A2977 RMK A01 T01210023  RH  051%=      5-min Rain = 0
KLE1 180951Z 07006KT 12/02 A2977 RMK A01 T01210024  RH  051%=      5-min Rain = 0
KLE1 180952Z 07006KT 12/02 A2977 RMK A01 T01210024  RH  051%=      5-min Rain = 0
KLE1 180953Z 07006KT 12/02 A2977 RMK A01 T01200024  RH  052%=      5-min Rain = 0
KLE1 180954Z 07006KT 12/02 A2977 RMK A01 T01200024  RH  052%=      5-min Rain = 0
KLE1 180955Z 07006KT 12/02 A2977 RMK A01 T01200024  RH  052%=      5-min Rain = 0
KLE1 180956Z 07006KT 12/02 A2977 RMK A01 T01200024  RH  052%=      5-min Rain = 0
KLE1 180957Z 07006KT 12/02 A2977 RMK A01 T01200024  RH  052%=      5-min Rain = 0
KLE1 180958Z 07006KT 12/02 A2977 RMK A01 T01200024  RH  052%=      5-min Rain = 0
KLE1 180959Z 06006KT 12/03 A2977 RMK A01 T01200025  RH  052%=      5-min Rain = 0
KLE1 181000Z 06006KT 12/03 A2977 RMK A01 T01190025  RH  052%=      5-min Rain = 0
KLE1 181001Z 06006KT 12/03 A2977 RMK A01 T01190025  RH  052%=      5-min Rain = 0
KLE1 181002Z 06006KT 12/03 A2977 RMK A01 T01190025  RH  052%=      5-min Rain = 0
KLE1 181003Z 06006KT 12/03 A2977 RMK A01 T01190025  RH  052%=      5-min Rain = 0
KLE1 181004Z 06006KT 12/03 A2977 RMK A01 T01190025  RH  052%=      5-min Rain = 0
KLE1 181005Z 06006KT 12/03 A2977 RMK A01 T01190025  RH  052%=      5-min Rain = 0
KLE1 181006Z 06006KT 12/03 A2977 RMK A01 T01190025  RH  052%=      5-min Rain = 0
KLE1 181007Z 06006KT 12/03 A2977 RMK A01 T01190025  RH  052%=      5-min Rain = 0
KLE1 181008Z 06006KT 12/03 A2977 RMK A01 T01200025  RH  052%=      5-min Rain = 0
KLE1 181009Z 06005KT 12/03 A2977 RMK A01 T01210025  RH  052%=      5-min Rain = 0
KLE1 181010Z 07005KT 12/03 A2977 RMK A01 T01200025  RH  052%=      5-min Rain = 0
KLE1 181011Z 06005KT 12/03 A2977 RMK A01 T01200025  RH  052%=      5-min Rain = 0
KLE1 181012Z 07005KT 12/03 A2977 RMK A01 T01200025  RH  052%=      5-min Rain = 0
KLE1 181013Z 07006KT 12/03 A2977 RMK A01 T01200025  RH  052%=      5-min Rain = 0
KLE1 181014Z 07005KT 12/03 A2977 RMK A01 T01210026  RH  052%=      5-min Rain = 0
KLE1 181015Z 07006KT 12/03 A2977 RMK A01 T01210025  RH  052%=      5-min Rain = 0
KLE1 181016Z 06005KT 12/03 A2977 RMK A01 T01210025  RH  052%=      5-min Rain = 0
KLE1 181017Z 07006KT 12/03 A2977 RMK A01 T01210025  RH  052%=      5-min Rain = 0
KLE1 181018Z 06006KT 12/03 A2976 RMK A01 T01210025  RH  052%=      5-min Rain = 0
KLE1 181019Z 06006KT 12/03 A2976 RMK A01 T01210025  RH  052%=      5-min Rain = 0
KLE1 181020Z 06006KT 12/03 A2976 RMK A01 T01210026  RH  052%=      5-min Rain = 0
KLE1 181021Z 07006KT 12/03 A2976 RMK A01 T01210026  RH  052%=      5-min Rain = 0
KLE1 181022Z 07006KT 12/03 A2976 RMK A01 T01210026  RH  052%=      5-min Rain = 0
KLE1 181023Z 07006KT 12/03 A2976 RMK A01 T01210026  RH  052%=      5-min Rain = 0
KLE1 181024Z 07006KT 12/03 A2976 RMK A01 T01200025  RH  052%=      5-min Rain = 0
KLE1 181025Z 07006KT 12/03 A2976 RMK A01 T01190026  RH  053%=      5-min Rain = 0
KLE1 181026Z 07006KT 12/03 A2976 RMK A01 T01180026  RH  053%=      5-min Rain = 0
KLE1 181027Z 07007KT 12/03 A2976 RMK A01 T01170025  RH  053%=      5-min Rain = 0
KLE1 181028Z 07006KT 12/03 A2976 RMK A01 T01170026  RH  053%=      5-min Rain = 0
KLE1 181029Z 07006KT 12/03 A2976 RMK A01 T01170026  RH  053%=      5-min Rain = 0
KLE1 181030Z 07006KT 12/03 A2976 RMK A01 T01160026  RH  054%=      5-min Rain = 0
KLE1 181031Z 07006KT 12/03 A2976 RMK A01 T01160025  RH  054%=      5-min Rain = 0
KLE1 181032Z 07006KT 12/03 A2976 RMK A01 T01170025  RH  053%=      5-min Rain = 0
KLE1 181033Z 07006KT 12/03 A2977 RMK A01 T01180026  RH  053%=      5-min Rain = 0
KLE1 181034Z 06006KT 12/03 A2976 RMK A01 T01180026  RH  053%=      5-min Rain = 0
KLE1 181035Z 06006KT 12/03 A2976 RMK A01 T01190026  RH  053%=      5-min Rain = 0
KLE1 181036Z 06006KT 12/03 A2976 RMK A01 T01190026  RH  053%=      5-min Rain = 0
KLE1 181037Z 06006KT 12/03 A2976 RMK A01 T01180026  RH  053%=      5-min Rain = 0
KLE1 181038Z 06005KT 12/03 A2976 RMK A01 T01180027  RH  053%=      5-min Rain = 0
KLE1 181039Z 05005KT 12/03 A2976 RMK A01 T01180026  RH  054%=      5-min Rain = 0
KLE1 181040Z 04005KT 12/03 A2977 RMK A01 T01170027  RH  054%=      5-min Rain = 0
KLE1 181041Z 04005KT 12/03 A2977 RMK A01 T01170027  RH  054%=      5-min Rain = 0
KLE1 181042Z 04005KT 12/03 A2977 RMK A01 T01170027  RH  054%=      5-min Rain = 0
KLE1 181043Z 05005KT 12/03 A2977 RMK A01 T01160027  RH  054%=      5-min Rain = 0
KLE1 181044Z 05005KT 12/03 A2977 RMK A01 T01150027  RH  054%=      5-min Rain = 0
KLE1 181045Z 05005KT 11/03 A2977 RMK A01 T01140027  RH  055%=      5-min Rain = 0
KLE1 181046Z 06005KT 11/03 A2977 RMK A01 T01140026  RH  055%=      5-min Rain = 0
KLE1 181047Z 06006KT 12/03 A2977 RMK A01 T01150027  RH  055%=      5-min Rain = 0
KLE1 181048Z 06005KT 12/03 A2977 RMK A01 T01150027  RH  055%=      5-min Rain = 0
KLE1 181049Z 06006KT 12/03 A2977 RMK A01 T01160027  RH  054%=      5-min Rain = 0
KLE1 181050Z 06006KT 12/03 A2977 RMK A01 T01160027  RH  054%=      5-min Rain = 0
KLE1 181051Z 06005KT 12/03 A2977 RMK A01 T01160027  RH  055%=      5-min Rain = 0
KLE1 181052Z 06005KT 12/03 A2977 RMK A01 T01150027  RH  055%=      5-min Rain = 0
KLE1 181053Z 06005KT 11/03 A2977 RMK A01 T01140027  RH  055%=      5-min Rain = 0
KLE1 181054Z 06005KT 12/03 A2977 RMK A01 T01150027  RH  055%=      5-min Rain = 0
KLE1 181055Z 06005KT 11/03 A2977 RMK A01 T01140028  RH  055%=      5-min Rain = 0
KLE1 181056Z 07006KT 11/03 A2977 RMK A01 T01140027  RH  055%=      5-min Rain = 0
KLE1 181057Z 06005KT 12/03 A2977 RMK A01 T01150027  RH  055%=      5-min Rain = 0
KLE1 181058Z 06006KT 12/03 A2977 RMK A01 T01160028  RH  054%=      5-min Rain = 0
KLE1 181059Z 06004KT 12/03 A2977 RMK A01 T01160027  RH  054%=      5-min Rain = 0
KLE1 181100Z 06004KT 12/03 A2977 RMK A01 T01170027  RH  054%=      5-min Rain = 0
KLE1 181101Z 06005KT 12/03 A2977 RMK A01 T01180028  RH  054%=      5-min Rain = 0
KLE1 181102Z 06005KT 12/03 A2977 RMK A01 T01180028  RH  054%=      5-min Rain = 0
KLE1 181103Z 06005KT 12/03 A2977 RMK A01 T01200028  RH  053%=      5-min Rain = 0
KLE1 181104Z 06006KT 12/03 A2977 RMK A01 T01200028  RH  053%=      5-min Rain = 0
KLE1 181105Z 06007KT 12/03 A2976 RMK A01 T01200028  RH  054%=      5-min Rain = 0
KLE1 181106Z 07006KT 12/03 A2977 RMK A01 T01190029  RH  054%=      5-min Rain = 0
KLE1 181107Z 07006KT 12/03 A2977 RMK A01 T01180028  RH  054%=      5-min Rain = 0
KLE1 181108Z 06006KT 12/03 A2977 RMK A01 T01180029  RH  054%=      5-min Rain = 0
KLE1 181109Z 06005KT 12/03 A2977 RMK A01 T01190029  RH  054%=      5-min Rain = 0
KLE1 181110Z 07006KT 12/03 A2977 RMK A01 T01190029  RH  054%=      5-min Rain = 0
KLE1 181111Z 07005KT 12/03 A2977 RMK A01 T01190029  RH  054%=      5-min Rain = 0
KLE1 181112Z 07005KT 12/03 A2977 RMK A01 T01180029  RH  054%=      5-min Rain = 0
KLE1 181113Z 07006KT 12/03 A2977 RMK A01 T01190028  RH  054%=      5-min Rain = 0
KLE1 181114Z 07006KT 12/03 A2977 RMK A01 T01190028  RH  054%=      5-min Rain = 0
KLE1 181115Z 07006KT 12/03 A2977 RMK A01 T01200028  RH  054%=      5-min Rain = 0
KLE1 181116Z 07006KT 12/03 A2977 RMK A01 T01200029  RH  054%=      5-min Rain = 0
KLE1 181117Z 07005KT 12/03 A2977 RMK A01 T01190029  RH  054%=      5-min Rain = 0
KLE1 181118Z 07005KT 12/03 A2977 RMK A01 T01190029  RH  054%=      5-min Rain = 0
KLE1 181119Z 07005KT 12/03 A2977 RMK A01 T01180029  RH  054%=      5-min Rain = 0
KLE1 181120Z 07006KT 12/03 A2977 RMK A01 T01180029  RH  054%=      5-min Rain = 0
KLE1 181121Z 07005KT 12/03 A2977 RMK A01 T01190029  RH  054%=      5-min Rain = 0
KLE1 181122Z 07005KT 12/03 A2977 RMK A01 T01200029  RH  054%=      5-min Rain = 0
KLE1 181123Z 07005KT 12/03 A2977 RMK A01 T01200029  RH  054%=      5-min Rain = 0
KLE1 181124Z 07005KT 12/03 A2977 RMK A01 T01200029  RH  054%=      5-min Rain = 0
KLE1 181125Z 07006KT 12/03 A2977 RMK A01 T01190029  RH  054%=      5-min Rain = 0
KLE1 181126Z 07006KT 12/03 A2977 RMK A01 T01190030  RH  054%=      5-min Rain = 0
KLE1 181127Z 07006KT 12/03 A2977 RMK A01 T01190030  RH  054%=      5-min Rain = 0
KLE1 181128Z 08005KT 12/03 A2978 RMK A01 T01200030  RH  054%=      5-min Rain = 0
KLE1 181129Z 07005KT 12/03 A2977 RMK A01 T01220030  RH  054%=      5-min Rain = 0
KLE1 181130Z 07006KT 12/03 A2977 RMK A01 T01230030  RH  053%=      5-min Rain = 0
KLE1 181131Z 07006KT 12/03 A2977 RMK A01 T01230030  RH  053%=      5-min Rain = 0
KLE1 181132Z 07006KT 12/03 A2977 RMK A01 T01230030  RH  053%=      5-min Rain = 0
KLE1 181133Z 08005KT 12/03 A2977 RMK A01 T01230030  RH  053%=      5-min Rain = 0
KLE1 181134Z 08006KT 12/03 A2977 RMK A01 T01220030  RH  053%=      5-min Rain = 0
KLE1 181135Z 07006KT 12/03 A2977 RMK A01 T01220030  RH  053%=      5-min Rain = 0
KLE1 181136Z 07005KT 12/03 A2977 RMK A01 T01220030  RH  053%=      5-min Rain = 0
KLE1 181137Z 08005KT 12/03 A2977 RMK A01 T01220029  RH  053%=      5-min Rain = 0
KLE1 181138Z 07005KT 12/03 A2977 RMK A01 T01210029  RH  053%=      5-min Rain = 0
KLE1 181139Z 08005KT 12/03 A2977 RMK A01 T01200029  RH  054%=      5-min Rain = 0
KLE1 181140Z 09005KT 12/03 A2977 RMK A01 T01220031  RH  054%=      5-min Rain = 0
KLE1 181141Z 09006KT 12/03 A2977 RMK A01 T01240031  RH  053%=      5-min Rain = 0
KLE1 181142Z 08006KT 12/03 A2977 RMK A01 T01240031  RH  053%=      5-min Rain = 0
KLE1 181143Z 08005KT 12/03 A2977 RMK A01 T01240031  RH  053%=      5-min Rain = 0
KLE1 181144Z 08005KT 12/03 A2977 RMK A01 T01230031  RH  053%=      5-min Rain = 0
KLE1 181145Z 09005KT 12/03 A2978 RMK A01 T01230031  RH  053%=      5-min Rain = 0
KLE1 181146Z 09005KT 12/03 A2978 RMK A01 T01240032  RH  053%=      5-min Rain = 0
KLE1 181147Z 09005KT 13/03 A2977 RMK A01 T01250032  RH  053%=      5-min Rain = 0
KLE1 181148Z 09004KT 13/03 A2977 RMK A01 T01250031  RH  053%=      5-min Rain = 0
KLE1 181149Z 09005KT 13/03 A2978 RMK A01 T01250031  RH  053%=      5-min Rain = 0
KLE1 181150Z 09005KT 12/03 A2978 RMK A01 T01240031  RH  053%=      5-min Rain = 0
KLE1 181151Z 09005KT 12/03 A2977 RMK A01 T01230031  RH  053%=      5-min Rain = 0
KLE1 181152Z 09005KT 12/03 A2977 RMK A01 T01230031  RH  053%=      5-min Rain = 0
KLE1 181153Z 10006KT 12/03 A2977 RMK A01 T01230031  RH  053%=      5-min Rain = 0
KLE1 181154Z 10005KT 12/03 A2977 RMK A01 T01230031  RH  053%=      5-min Rain = 0
KLE1 181155Z 10005KT 12/03 A2977 RMK A01 T01230032  RH  054%=      5-min Rain = 0
KLE1 181156Z 10006KT 12/03 A2977 RMK A01 T01220032  RH  054%=      5-min Rain = 0
KLE1 181157Z 10005KT 12/03 A2978 RMK A01 T01210032  RH  055%=      5-min Rain = 0
KLE1 181158Z 10005KT 12/03 A2978 RMK A01 T01200032  RH  055%=      5-min Rain = 0
KLE1 181159Z 10005KT 12/03 A2978 RMK A01 T01210033  RH  055%=      5-min Rain = 0
KLE1 181200Z 10005KT 12/03 A2978 RMK A01 T01210032  RH  055%=      5-min Rain = 0
KLE1 181201Z 10005KT 12/03 A2978 RMK A01 T01200032  RH  055%=      5-min Rain = 0
KLE1 181202Z 10006KT 12/03 A2978 RMK A01 T01210033  RH  055%=      5-min Rain = 0
KLE1 181203Z 10005KT 12/03 A2978 RMK A01 T01210033  RH  055%=      5-min Rain = 0
KLE1 181204Z 10005KT 12/03 A2978 RMK A01 T01200033  RH  055%=      5-min Rain = 0
KLE1 181205Z 11005KT 12/03 A2978 RMK A01 T01200034  RH  056%=      5-min Rain = 0
KLE1 181206Z 11005KT 12/03 A2978 RMK A01 T01190034  RH  056%=      5-min Rain = 0
KLE1 181207Z 11005KT 12/03 A2978 RMK A01 T01190034  RH  056%=      5-min Rain = 0
KLE1 181208Z 11005KT 12/03 A2978 RMK A01 T01190034  RH  056%=      5-min Rain = 0
KLE1 181209Z 11006KT 12/03 A2978 RMK A01 T01200033  RH  056%=      5-min Rain = 0
KLE1 181210Z 11006KT 12/03 A2978 RMK A01 T01200034  RH  056%=      5-min Rain = 0
KLE1 181211Z 10006KT 12/03 A2978 RMK A01 T01190034  RH  056%=      5-min Rain = 0
KLE1 181212Z 10006KT 12/04 A2978 RMK A01 T01180035  RH  056%=      5-min Rain = 0
KLE1 181213Z 11006KT 12/04 A2978 RMK A01 T01190035  RH  057%=      5-min Rain = 0
KLE1 181214Z 11007KT 12/04 A2978 RMK A01 T01180035  RH  057%=      5-min Rain = 0
KLE1 181215Z 11007KT 12/04 A2978 RMK A01 T01180036  RH  057%=      5-min Rain = 0
KLE1 181216Z 10007KT 12/04 A2978 RMK A01 T01180036  RH  057%=      5-min Rain = 0
KLE1 181217Z 10007KT 12/04 A2978 RMK A01 T01180036  RH  057%=      5-min Rain = 0
KLE1 181218Z 10007KT 12/04 A2978 RMK A01 T01170036  RH  057%=      5-min Rain = 0
KLE1 181219Z 10007KT 12/04 A2978 RMK A01 T01160035  RH  057%=      5-min Rain = 0
KLE1 181220Z 10007KT 12/04 A2978 RMK A01 T01160035  RH  057%=      5-min Rain = 0
KLE1 181221Z 10006KT 12/04 A2978 RMK A01 T01150035  RH  058%=      5-min Rain = 0
KLE1 181222Z 09007KT 11/03 A2978 RMK A01 T01140034  RH  058%=      5-min Rain = 0
KLE1 181223Z 10006KT 11/03 A2977 RMK A01 T01140034  RH  058%=      5-min Rain = 0
KLE1 181224Z 10007KT 11/03 A2977 RMK A01 T01130033  RH  058%=      5-min Rain = 0
KLE1 181225Z 10006KT 11/03 A2977 RMK A01 T01120033  RH  058%=      5-min Rain = 0
KLE1 181226Z 10007KT 11/03 A2977 RMK A01 T01110032  RH  058%=      5-min Rain = 0
KLE1 181227Z 09007KT 11/03 A2977 RMK A01 T01110031  RH  058%=      5-min Rain = 0
KLE1 181228Z 10006KT 11/03 A2977 RMK A01 T01110030  RH  057%=      5-min Rain = 0
KLE1 181229Z 10006KT 11/03 A2977 RMK A01 T01100029  RH  057%=      5-min Rain = 0
KLE1 181230Z 10005KT 11/03 A2977 RMK A01 T01100028  RH  057%=      5-min Rain = 0
KLE1 181231Z 10006KT 11/03 A2977 RMK A01 T01090028  RH  057%=      5-min Rain = 0
KLE1 181232Z 10007KT 11/03 A2977 RMK A01 T01090027  RH  057%=      5-min Rain = 0
KLE1 181233Z 09006KT 11/03 A2977 RMK A01 T01080026  RH  057%=      5-min Rain = 0
KLE1 181234Z 09006KT 11/03 A2977 RMK A01 T01090025  RH  056%=      5-min Rain = 0
KLE1 181235Z 09006KT 11/03 A2977 RMK A01 T01090025  RH  056%=      5-min Rain = 0
KLE1 181236Z 09006KT 11/03 A2977 RMK A01 T01090025  RH  056%=      5-min Rain = 0
KLE1 181237Z 08006KT 11/03 A2977 RMK A01 T01080025  RH  056%=      5-min Rain = 0
KLE1 181238Z 08006KT 11/03 A2977 RMK A01 T01080025  RH  056%=      5-min Rain = 0
KLE1 181239Z 08006KT 11/02 A2977 RMK A01 T01080024  RH  056%=      5-min Rain = 0
KLE1 181240Z 07006KT 11/02 A2977 RMK A01 T01070024  RH  056%=      5-min Rain = 0
KLE1 181241Z 07006KT 11/02 A2977 RMK A01 T01080024  RH  056%=      5-min Rain = 0
KLE1 181242Z 07006KT 11/02 A2977 RMK A01 T01070024  RH  056%=      5-min Rain = 0
KLE1 181243Z 07007KT 11/02 A2977 RMK A01 T01060024  RH  057%=      5-min Rain = 0
KLE1 181244Z 07006KT 11/02 A2977 RMK A01 T01050023  RH  057%=      5-min Rain = 0
KLE1 181245Z 08007KT 10/02 A2977 RMK A01 T01040023  RH  057%=      5-min Rain = 0
KLE1 181246Z 08007KT 10/02 A2977 RMK A01 T01040023  RH  057%=      5-min Rain = 0
KLE1 181247Z 08006KT 10/02 A2977 RMK A01 T01040022  RH  057%=      5-min Rain = 0
KLE1 181248Z 09006KT 10/02 A2977 RMK A01 T01040022  RH  057%=      5-min Rain = 0
KLE1 181249Z 09007KT 10/02 A2977 RMK A01 T01030021  RH  057%=      5-min Rain = 0
KLE1 181250Z 09007KT 10/02 A2977 RMK A01 T01020021  RH  057%=      5-min Rain = 0
KLE1 181251Z 10007KT 10/02 A2977 RMK A01 T01020022  RH  057%=      5-min Rain = 0
KLE1 181252Z 10007KT 10/02 A2977 RMK A01 T01020022  RH  057%=      5-min Rain = 0
KLE1 181253Z 10007KT 10/02 A2977 RMK A01 T01020022  RH  058%=      5-min Rain = 0
KLE1 181254Z 10007KT 10/02 A2977 RMK A01 T01020022  RH  057%=      5-min Rain = 0
KLE1 181255Z 10007KT 10/02 A2977 RMK A01 T01030022  RH  057%=      5-min Rain = 0
KLE1 181256Z 10007KT 10/02 A2977 RMK A01 T01040023  RH  057%=      5-min Rain = 0
KLE1 181257Z 10006KT 10/02 A2977 RMK A01 T01040022  RH  057%=      5-min Rain = 0
KLE1 181258Z 10006KT 10/02 A2977 RMK A01 T01040022  RH  057%=      5-min Rain = 0
KLE1 181259Z 10006KT 11/02 A2977 RMK A01 T01050023  RH  057%=      5-min Rain = 0
KLE1 181300Z 10006KT 11/02 A2977 RMK A01 T01050023  RH  057%=      5-min Rain = 0
KLE1 181301Z 10005KT 11/02 A2977 RMK A01 T01060024  RH  057%=      5-min Rain = 0
KLE1 181302Z 10006KT 11/02 A2977 RMK A01 T01060024  RH  057%=      5-min Rain = 0
KLE1 181303Z 10006KT 11/03 A2977 RMK A01 T01060025  RH  057%=      5-min Rain = 0
KLE1 181304Z 10006KT 11/03 A2977 RMK A01 T01060025  RH  057%=      5-min Rain = 0
KLE1 181305Z 09006KT 11/03 A2977 RMK A01 T01060025  RH  057%=      5-min Rain = 0
KLE1 181306Z 09006KT 11/03 A2977 RMK A01 T01060025  RH  057%=      5-min Rain = 0
KLE1 181307Z 08006KT 11/03 A2977 RMK A01 T01060025  RH  057%=      5-min Rain = 0
KLE1 181308Z 08006KT 11/03 A2977 RMK A01 T01050025  RH  057%=      5-min Rain = 0
KLE1 181309Z 07005KT 11/02 A2977 RMK A01 T01050024  RH  057%=      5-min Rain = 0
KLE1 181310Z 07006KT 10/02 A2977 RMK A01 T01040024  RH  058%=      5-min Rain = 0
KLE1 181311Z 06006KT 10/02 A2977 RMK A01 T01040024  RH  058%=      5-min Rain = 0
KLE1 181312Z 06007KT 10/02 A2977 RMK A01 T01040024  RH  058%=      5-min Rain = 0
KLE1 181313Z 07007KT 10/03 A2977 RMK A01 T01040025  RH  058%=      5-min Rain = 0
KLE1 181314Z 06007KT 10/03 A2977 RMK A01 T01040026  RH  058%=      5-min Rain = 0
KLE1 181315Z 07007KT 11/03 A2977 RMK A01 T01060027  RH  058%=      5-min Rain = 0
KLE1 181316Z 07008KT 11/03 A2977 RMK A01 T01070027  RH  058%=      5-min Rain = 0
KLE1 181317Z 07009KT 11/03 A2977 RMK A01 T01080027  RH  057%=      5-min Rain = 0
KLE1 181318Z 08008KT 11/03 A2977 RMK A01 T01100026  RH  056%=      5-min Rain = 0
KLE1 181319Z 08007KT 11/03 A2977 RMK A01 T01110025  RH  055%=      5-min Rain = 0
KLE1 181320Z 08007KT 11/03 A2977 RMK A01 T01120025  RH  055%=      5-min Rain = 0
KLE1 181321Z 09007KT 11/03 A2977 RMK A01 T01120025  RH  055%=      5-min Rain = 0
KLE1 181322Z 09007KT 11/03 A2977 RMK A01 T01120025  RH  055%=      5-min Rain = 0
KLE1 181323Z 09007KT 11/03 A2977 RMK A01 T01130026  RH  055%=      5-min Rain = 0
KLE1 181324Z 10007KT 12/03 A2977 RMK A01 T01150028  RH  055%=      5-min Rain = 0
KLE1 181325Z 10007KT 12/03 A2977 RMK A01 T01170030  RH  055%=      5-min Rain = 0
KLE1 181326Z 10007KT 12/03 A2977 RMK A01 T01180029  RH  055%=      5-min Rain = 0
KLE1 181327Z 10007KT 12/03 A2977 RMK A01 T01190030  RH  054%=      5-min Rain = 0
KLE1 181328Z 10006KT 12/03 A2977 RMK A01 T01200030  RH  054%=      5-min Rain = 0
KLE1 181329Z 10006KT 12/03 A2977 RMK A01 T01200029  RH  054%=      5-min Rain = 0
KLE1 181330Z 10006KT 12/03 A2977 RMK A01 T01200030  RH  054%=      5-min Rain = 0
KLE1 181331Z 10006KT 12/03 A2977 RMK A01 T01190030  RH  054%=      5-min Rain = 0
KLE1 181332Z 10006KT 12/03 A2977 RMK A01 T01200030  RH  054%=      5-min Rain = 0
KLE1 181333Z 09006KT 12/03 A2977 RMK A01 T01200029  RH  054%=      5-min Rain = 0
KLE1 181334Z 10007KT 12/03 A2977 RMK A01 T01200029  RH  054%=      5-min Rain = 0
KLE1 181335Z 09006KT 12/03 A2976 RMK A01 T01200029  RH  054%=      5-min Rain = 0
KLE1 181336Z 09007KT 12/03 A2977 RMK A01 T01200030  RH  054%=      5-min Rain = 0
KLE1 181337Z 10007KT 12/03 A2977 RMK A01 T01210031  RH  054%=      5-min Rain = 0
KLE1 181338Z 09007KT 12/03 A2976 RMK A01 T01220032  RH  054%=      5-min Rain = 0
KLE1 181339Z 09007KT 12/03 A2976 RMK A01 T01230032  RH  054%=      5-min Rain = 0
KLE1 181340Z 10007KT 12/03 A2977 RMK A01 T01240033  RH  054%=      5-min Rain = 0
KLE1 181341Z 10007KT 13/03 A2976 RMK A01 T01250032  RH  053%=      5-min Rain = 0
KLE1 181342Z 10006KT 13/03 A2977 RMK A01 T01250033  RH  053%=      5-min Rain = 0
KLE1 181343Z 10006KT 13/03 A2977 RMK A01 T01260033  RH  053%=      5-min Rain = 0
KLE1 181344Z 10005KT 13/03 A2977 RMK A01 T01260033  RH  053%=      5-min Rain = 0
KLE1 181345Z 09004KT 13/03 A2977 RMK A01 T01270033  RH  053%=      5-min Rain = 0
KLE1 181346Z 08006KT 13/03 A2977 RMK A01 T01280032  RH  052%=      5-min Rain = 0
KLE1 181347Z 08007KT 13/03 A2977 RMK A01 T01280028  RH  051%=      5-min Rain = 0
KLE1 181348Z 08006KT 13/03 A2977 RMK A01 T01280027  RH  050%=      5-min Rain = 0
KLE1 181349Z 07004KT 13/03 A2977 RMK A01 T01280026  RH  050%=      5-min Rain = 0
KLE1 181350Z 08005KT 13/03 A2977 RMK A01 T01280028  RH  051%=      5-min Rain = 0
KLE1 181351Z 08004KT 13/03 A2977 RMK A01 T01280028  RH  051%=      5-min Rain = 0
KLE1 181352Z 08004KT 13/03 A2977 RMK A01 T01290029  RH  050%=      5-min Rain = 0
KLE1 181353Z 09006KT 13/03 A2977 RMK A01 T01300028  RH  050%=      5-min Rain = 0
KLE1 181354Z 10006KT 13/03 A2977 RMK A01 T01300029  RH  050%=      5-min Rain = 0
KLE1 181355Z 10006KT 13/03 A2977 RMK A01 T01310029  RH  050%=      5-min Rain = 0
KLE1 181356Z 10007KT 13/03 A2977 RMK A01 T01320029  RH  050%=      5-min Rain = 0
KLE1 181357Z 11007KT 13/03 A2977 RMK A01 T01330029  RH  050%=      5-min Rain = 0
KLE1 181358Z 11007KT 13/03 A2977 RMK A01 T01330029  RH  049%=      5-min Rain = 0
KLE1 181359Z 12007KT 13/03 A2977 RMK A01 T01340029  RH  049%=      5-min Rain = 0
KLE1 181400Z 11008KT 14/03 A2976 RMK A01 T01350033  RH  050%=      5-min Rain = 0
KLE1 181401Z 11008KT 14/03 A2976 RMK A01 T01370031  RH  049%=      5-min Rain = 0
KLE1 181402Z 11008KT 14/03 A2977 RMK A01 T01370028  RH  048%=      5-min Rain = 0
KLE1 181403Z 11008KT 14/03 A2977 RMK A01 T01360026  RH  047%=      5-min Rain = 0
KLE1 181404Z 10008KT 14/03 A2977 RMK A01 T01360027  RH  048%=      5-min Rain = 0
KLE1 181405Z 10007KT 14/03 A2976 RMK A01 T01360028  RH  048%=      5-min Rain = 0
KLE1 181406Z 11008KT 14/03 A2977 RMK A01 T01370030  RH  048%=      5-min Rain = 0
KLE1 181407Z 11007KT 14/03 A2977 RMK A01 T01380030  RH  048%=      5-min Rain = 0
KLE1 181408Z 12006KT 14/03 A2977 RMK A01 T01380031  RH  048%=      5-min Rain = 0
KLE1 181409Z 11007KT 14/03 A2977 RMK A01 T01390032  RH  048%=      5-min Rain = 0
KLE1 181410Z 11008KT 14/03 A2977 RMK A01 T01400032  RH  048%=      5-min Rain = 0
KLE1 181411Z 10006KT 14/03 A2977 RMK A01 T01410032  RH  048%=      5-min Rain = 0
KLE1 181412Z 11005KT 14/03 A2977 RMK A01 T01410033  RH  048%=      5-min Rain = 0
KLE1 181413Z 10006KT 14/04 A2977 RMK A01 T01420040  RH  050%=      5-min Rain = 0
KLE1 181414Z 10007KT 14/04 A2977 RMK A01 T01430036  RH  048%=      5-min Rain = 0
KLE1 181415Z 11005KT 14/03 A2977 RMK A01 T01440034  RH  048%=      5-min Rain = 0
KLE1 181416Z 10003KT 14/04 A2977 RMK A01 T01440035  RH  048%=      5-min Rain = 0
KLE1 181417Z 09005KT 15/04 A2977 RMK A01 T01450037  RH  048%=      5-min Rain = 0
KLE1 181418Z 09005KT 15/03 A2977 RMK A01 T01460034  RH  047%=      5-min Rain = 0
KLE1 181419Z 10006KT 15/03 A2977 RMK A01 T01450034  RH  047%=      5-min Rain = 0
KLE1 181420Z 11006KT 15/04 A2977 RMK A01 T01450035  RH  048%=      5-min Rain = 0
KLE1 181421Z 11007KT 15/04 A2977 RMK A01 T01470037  RH  048%=      5-min Rain = 0
KLE1 181422Z 11007KT 15/03 A2977 RMK A01 T01470034  RH  047%=      5-min Rain = 0
KLE1 181423Z 09007KT 15/03 A2977 RMK A01 T01470033  RH  046%=      5-min Rain = 0
KLE1 181424Z 08007KT 15/03 A2977 RMK A01 T01460033  RH  046%=      5-min Rain = 0
KLE1 181425Z 11007KT 15/03 A2977 RMK A01 T01470034  RH  047%=      5-min Rain = 0
KLE1 181426Z 10007KT 15/03 A2977 RMK A01 T01470034  RH  046%=      5-min Rain = 0
KLE1 181427Z 11008KT 15/03 A2977 RMK A01 T01480033  RH  046%=      5-min Rain = 0
KLE1 181428Z 11008KT 15/03 A2977 RMK A01 T01470031  RH  046%=      5-min Rain = 0
KLE1 181429Z 11009KT 15/03 A2977 RMK A01 T01470032  RH  046%=      5-min Rain = 0
KLE1 181430Z 10008KT 15/03 A2977 RMK A01 T01470033  RH  046%=      5-min Rain = 0
KLE1 181431Z 09009KT 15/03 A2977 RMK A01 T01480033  RH  046%=      5-min Rain = 0
KLE1 181432Z 10008KT 15/03 A2977 RMK A01 T01480034  RH  046%=      5-min Rain = 0
KLE1 181433Z 10007KT 15/03 A2977 RMK A01 T01490034  RH  046%=      5-min Rain = 0
KLE1 181434Z 11008KT 15/03 A2977 RMK A01 T01500034  RH  046%=      5-min Rain = 0
KLE1 181435Z 11008KT 15/04 A2977 RMK A01 T01500035  RH  046%=      5-min Rain = 0
KLE1 181436Z 11009KT 15/04 A2977 RMK A01 T01520035  RH  046%=      5-min Rain = 0
KLE1 181437Z 08008KT 15/04 A2977 RMK A01 T01520035  RH  046%=      5-min Rain = 0
KLE1 181438Z 10007KT 15/04 A2977 RMK A01 T01530036  RH  046%=      5-min Rain = 0
KLE1 181439Z 10006KT 15/04 A2977 RMK A01 T01540036  RH  045%=      5-min Rain = 0
KLE1 181440Z 08008KT 16/04 A2977 RMK A01 T01550036  RH  045%=      5-min Rain = 0
KLE1 181441Z 08008KT 16/04 A2977 RMK A01 T01550036  RH  045%=      5-min Rain = 0
KLE1 181442Z 10008KT 16/04 A2977 RMK A01 T01550036  RH  045%=      5-min Rain = 0
KLE1 181443Z 09008KT 16/04 A2977 RMK A01 T01550036  RH  045%=      5-min Rain = 0
KLE1 181444Z 10007KT 15/04 A2977 RMK A01 T01540038  RH  046%=      5-min Rain = 0
KLE1 181445Z 11006KT 16/04 A2977 RMK A01 T01550039  RH  046%=      5-min Rain = 0
KLE1 181446Z 11007KT 16/04 A2977 RMK A01 T01560040  RH  046%=      5-min Rain = 0
KLE1 181447Z 10008KT 16/04 A2977 RMK A01 T01580041  RH  046%=      5-min Rain = 0
KLE1 181448Z 09008KT 16/04 A2977 RMK A01 T01580041  RH  046%=      5-min Rain = 0
KLE1 181449Z 09009KT 16/04 A2977 RMK A01 T01570043  RH  047%=      5-min Rain = 0
KLE1 181450Z 11008KT 16/04 A2977 RMK A01 T01590044  RH  046%=      5-min Rain = 0
KLE1 181451Z 11008KT 16/04 A2977 RMK A01 T01610044  RH  046%=      5-min Rain = 0
KLE1 181452Z 11008KT 16/04 A2977 RMK A01 T01620042  RH  045%=      5-min Rain = 0
KLE1 181453Z 11008KT 16/05 A2977 RMK A01 T01620045  RH  046%=      5-min Rain = 0
KLE1 181454Z 10008KT 16/04 A2977 RMK A01 T01620044  RH  046%=      5-min Rain = 0
KLE1 181455Z 10008KT 16/05 A2977 RMK A01 T01620046  RH  046%=      5-min Rain = 0
KLE1 181456Z 09008KT 16/05 A2977 RMK A01 T01630048  RH  046%=      5-min Rain = 0
KLE1 181457Z 10008KT 16/05 A2977 RMK A01 T01640048  RH  046%=      5-min Rain = 0
KLE1 181458Z 11008KT 17/05 A2977 RMK A01 T01650047  RH  046%=      5-min Rain = 0
KLE1 181459Z 11007KT 17/05 A2977 RMK A01 T01660050  RH  046%=      5-min Rain = 0
KLE1 181500Z 11007KT 17/05 A2977 RMK A01 T01660051  RH  046%=      5-min Rain = 0
KLE1 181501Z 11007KT 17/05 A2977 RMK A01 T01670051  RH  046%=      5-min Rain = 0
KLE1 181502Z 11006KT 17/05 A2977 RMK A01 T01680050  RH  046%=      5-min Rain = 0
KLE1 181503Z 12007KT 17/05 A2977 RMK A01 T01700054  RH  046%=      5-min Rain = 0
KLE1 181504Z 12008KT 17/05 A2977 RMK A01 T01710054  RH  046%=      5-min Rain = 0
KLE1 181505Z 11009KT 17/06 A2976 RMK A01 T01700057  RH  047%=      5-min Rain = 0
KLE1 181506Z 11008KT 17/06 A2976 RMK A01 T01700056  RH  047%=      5-min Rain = 0
KLE1 181507Z 12008KT 17/06 A2976 RMK A01 T01700057  RH  047%=      5-min Rain = 0
KLE1 181508Z 11007KT 17/06 A2976 RMK A01 T01730060  RH  047%=      5-min Rain = 0
KLE1 181509Z 12007KT 18/06 A2976 RMK A01 T01760061  RH  047%=      5-min Rain = 0
KLE1 181510Z 12008KT 18/07 A2976 RMK A01 T01790067  RH  048%=      5-min Rain = 0
KLE1 181511Z 12008KT 18/07 A2976 RMK A01 T01780068  RH  048%=      5-min Rain = 0
KLE1 181512Z 12007KT 18/07 A2976 RMK A01 T01760069  RH  050%=      5-min Rain = 0
KLE1 181513Z 12007KT 18/07 A2976 RMK A01 T01750071  RH  050%=      5-min Rain = 0
KLE1 181514Z 12008KT 18/07 A2976 RMK A01 T01770070  RH  049%=      5-min Rain = 0
KLE1 181515Z 13008KT 18/07 A2976 RMK A01 T01780074  RH  050%=      5-min Rain = 0
KLE1 181516Z 13007KT 18/08 A2976 RMK A01 T01800076  RH  051%=      5-min Rain = 0
KLE1 181517Z 13007KT 18/08 A2976 RMK A01 T01810076  RH  050%=      5-min Rain = 0
KLE1 181518Z 13008KT 18/08 A2976 RMK A01 T01830075  RH  049%=      5-min Rain = 0
KLE1 181519Z 13008KT 18/07 A2976 RMK A01 T01840074  RH  049%=      5-min Rain = 0
KLE1 181520Z 13009KT 18/07 A2975 RMK A01 T01840074  RH  049%=      5-min Rain = 0
KLE1 181521Z 13007KT 18/08 A2976 RMK A01 T01840076  RH  049%=      5-min Rain = 0
KLE1 181522Z 13009KT 19/08 A2976 RMK A01 T01850076  RH  049%=      5-min Rain = 0
KLE1 181523Z 12007KT 19/08 A2976 RMK A01 T01860076  RH  049%=      5-min Rain = 0
KLE1 181524Z 13006KT 19/08 A2976 RMK A01 T01860077  RH  049%=      5-min Rain = 0
KLE1 181525Z 13007KT 19/08 A2976 RMK A01 T01880078  RH  049%=      5-min Rain = 0
KLE1 181526Z 13007KT 19/08 A2976 RMK A01 T01890077  RH  048%=      5-min Rain = 0
KLE1 181527Z 13006KT 19/08 A2976 RMK A01 T01890077  RH  048%=      5-min Rain = 0
KLE1 181528Z 13007KT 19/08 A2976 RMK A01 T01890077  RH  048%=      5-min Rain = 0
KLE1 181529Z 12006KT 19/08 A2975 RMK A01 T01880077  RH  048%=      5-min Rain = 0
KLE1 181530Z 12006KT 19/08 A2975 RMK A01 T01880076  RH  048%=      5-min Rain = 0
KLE1 181531Z 12005KT 19/08 A2975 RMK A01 T01870075  RH  048%=      5-min Rain = 0
KLE1 181532Z 12006KT 19/08 A2975 RMK A01 T01860076  RH  049%=      5-min Rain = 0
KLE1 181533Z 14006KT 19/08 A2975 RMK A01 T01870079  RH  049%=      5-min Rain = 0
KLE1 181534Z 13006KT 19/08 A2975 RMK A01 T01900081  RH  049%=      5-min Rain = 0
KLE1 181535Z 13007KT 19/08 A2975 RMK A01 T01910081  RH  049%=      5-min Rain = 0
KLE1 181536Z 13006KT 19/08 A2975 RMK A01 T01920079  RH  048%=      5-min Rain = 0
KLE1 181537Z 12007KT 19/08 A2975 RMK A01 T01920079  RH  048%=      5-min Rain = 0
KLE1 181538Z 13007KT 19/08 A2975 RMK A01 T01920079  RH  048%=      5-min Rain = 0
KLE1 181539Z 13008KT 19/08 A2975 RMK A01 T01930081  RH  048%=      5-min Rain = 0
KLE1 181540Z 14007KT 19/08 A2975 RMK A01 T01940081  RH  048%=      5-min Rain = 0
KLE1 181541Z 13006KT 20/08 A2975 RMK A01 T01950081  RH  048%=      5-min Rain = 0
KLE1 181542Z 12008KT 19/08 A2975 RMK A01 T01940082  RH  048%=      5-min Rain = 0
KLE1 181543Z 13005KT 20/08 A2975 RMK A01 T01950083  RH  048%=      5-min Rain = 0
KLE1 181544Z 12007KT 20/08 A2975 RMK A01 T01970083  RH  048%=      5-min Rain = 0
KLE1 181545Z 13008KT 20/08 A2975 RMK A01 T01970082  RH  047%=      5-min Rain = 0
KLE1 181546Z 11006KT 20/08 A2975 RMK A01 T01960081  RH  047%=      5-min Rain = 0
KLE1 181547Z 10005KT 19/08 A2974 RMK A01 T01940081  RH  048%=      5-min Rain = 0
KLE1 181548Z 10006KT 20/08 A2974 RMK A01 T01950082  RH  048%=      5-min Rain = 0
KLE1 181549Z 10007KT 20/08 A2974 RMK A01 T01950078  RH  046%=      5-min Rain = 0
KLE1 181550Z 09005KT 19/08 A2974 RMK A01 T01930077  RH  047%=      5-min Rain = 0
KLE1 181551Z 09007KT 19/08 A2974 RMK A01 T01940080  RH  048%=      5-min Rain = 0
KLE1 181552Z 09007KT 20/08 A2974 RMK A01 T01950077  RH  046%=      5-min Rain = 0
KLE1 181553Z 08005KT 20/08 A2974 RMK A01 T01950078  RH  047%=      5-min Rain = 0
KLE1 181554Z 08007KT 19/08 A2974 RMK A01 T01940078  RH  047%=      5-min Rain = 0
KLE1 181555Z 10007KT 19/08 A2974 RMK A01 T01930078  RH  047%=      5-min Rain = 0
KLE1 181556Z 10006KT 19/08 A2974 RMK A01 T01940078  RH  047%=      5-min Rain = 0
KLE1 181557Z 09007KT 20/08 A2974 RMK A01 T01970083  RH  048%=      5-min Rain = 0
KLE1 181558Z 10007KT 20/08 A2974 RMK A01 T02000080  RH  046%=      5-min Rain = 0
KLE1 181559Z 09008KT 20/08 A2974 RMK A01 T02000080  RH  046%=      5-min Rain = 0
KLE1 181600Z 11006KT 20/08 A2974 RMK A01 T01990080  RH  046%=      5-min Rain = 0
KLE1 181601Z 11005KT 20/08 A2974 RMK A01 T01990080  RH  046%=      5-min Rain = 0
KLE1 181602Z 10006KT 20/08 A2974 RMK A01 T02000082  RH  047%=      5-min Rain = 0
KLE1 181603Z 09007KT 20/08 A2974 RMK A01 T02010080  RH  046%=      5-min Rain = 0
KLE1 181604Z 11007KT 20/08 A2974 RMK A01 T02020083  RH  046%=      5-min Rain = 0
KLE1 181605Z 10006KT 20/09 A2974 RMK A01 T02040085  RH  046%=      5-min Rain = 0
KLE1 181606Z 11006KT 21/09 A2974 RMK A01 T02080087  RH  046%=      5-min Rain = 0
KLE1 181607Z 10009KT 21/08 A2974 RMK A01 T02090083  RH  044%=      5-min Rain = 0
KLE1 181608Z 11006KT 21/08 A2974 RMK A01 T02080080  RH  044%=      5-min Rain = 0
KLE1 181609Z 12005KT 20/08 A2974 RMK A01 T02040081  RH  045%=      5-min Rain = 0
KLE1 181610Z 11006KT 21/09 A2974 RMK A01 T02050086  RH  046%=      5-min Rain = 0
KLE1 181611Z 11007KT 21/09 A2974 RMK A01 T02070085  RH  045%=      5-min Rain = 0
KLE1 181612Z 11008KT 21/09 A2974 RMK A01 T02070085  RH  045%=      5-min Rain = 0
KLE1 181613Z 10008KT 21/09 A2974 RMK A01 T02090087  RH  045%=      5-min Rain = 0
KLE1 181614Z 12009KT 21/09 A2974 RMK A01 T02110086  RH  045%=      5-min Rain = 0
KLE1 181615Z 12008KT 21/09 A2974 RMK A01 T02110085  RH  044%=      5-min Rain = 0
KLE1 181616Z 12008KT 21/09 A2974 RMK A01 T02100086  RH  045%=      5-min Rain = 0
KLE1 181617Z 12009KT 21/09 A2974 RMK A01 T02110089  RH  046%=      5-min Rain = 0
KLE1 181618Z 13009KT 21/09 A2973 RMK A01 T02130092  RH  046%=      5-min Rain = 0
KLE1 181619Z 14009KT 21/09 A2973 RMK A01 T02140093  RH  046%=      5-min Rain = 0
KLE1 181620Z 13008KT 21/09 A2973 RMK A01 T02140092  RH  046%=      5-min Rain = 0
KLE1 181621Z 13010KT 21/09 A2973 RMK A01 T02140093  RH  046%=      5-min Rain = 0
KLE1 181622Z 12009KT 21/09 A2973 RMK A01 T02140092  RH  046%=      5-min Rain = 0
KLE1 181623Z 11009G14KT 21/09 A2973 RMK A01 T02140091  RH  045%=      5-min Rain = 0
KLE1 181624Z 12008KT 22/09 A2973 RMK A01 T02160092  RH  045%=      5-min Rain = 0
KLE1 181625Z 11009KT 22/09 A2973 RMK A01 T02170092  RH  045%=      5-min Rain = 0
KLE1 181626Z 10009KT 22/09 A2973 RMK A01 T02180091  RH  044%=      5-min Rain = 0
KLE1 181627Z 12009KT 22/09 A2973 RMK A01 T02180093  RH  045%=      5-min Rain = 0
KLE1 181628Z 12009KT 22/09 A2973 RMK A01 T02180093  RH  045%=      5-min Rain = 0
KLE1 181629Z 11008KT 22/09 A2973 RMK A01 T02190094  RH  045%=      5-min Rain = 0
KLE1 181630Z 12008KT 22/09 A2973 RMK A01 T02200094  RH  045%=      5-min Rain = 0
KLE1 181631Z 14008KT 22/10 A2973 RMK A01 T02200099  RH  046%=      5-min Rain = 0
KLE1 181632Z 13008KT 22/10 A2973 RMK A01 T02220098  RH  045%=      5-min Rain = 0
KLE1 181633Z 13010KT 22/10 A2973 RMK A01 T02220098  RH  045%=      5-min Rain = 0
KLE1 181634Z 14009KT 22/10 A2973 RMK A01 T02230097  RH  045%=      5-min Rain = 0
KLE1 181635Z 14009KT 22/10 A2973 RMK A01 T02220098  RH  045%=      5-min Rain = 0
KLE1 181636Z 16008KT 22/10 A2973 RMK A01 T02230099  RH  045%=      5-min Rain = 0
KLE1 181637Z 15007KT 23/10 A2973 RMK A01 T02250099  RH  045%=      5-min Rain = 0
KLE1 181638Z 13008KT 23/10 A2973 RMK A01 T02250098  RH  045%=      5-min Rain = 0
KLE1 181639Z 14009KT 23/10 A2973 RMK A01 T02260100  RH  045%=      5-min Rain = 0
KLE1 181640Z 15007KT 23/10 A2973 RMK A01 T02280100  RH  044%=      5-min Rain = 0
KLE1 181641Z 15008KT 23/10 A2973 RMK A01 T02300100  RH  044%=      5-min Rain = 0
KLE1 181642Z 16007KT 23/10 A2973 RMK A01 T02300096  RH  043%=      5-min Rain = 0
KLE1 181643Z 14007KT 23/10 A2973 RMK A01 T02250095  RH  044%=      5-min Rain = 0
KLE1 181644Z 14007G12KT 22/10 A2973 RMK A01 T02240096  RH  044%=      5-min Rain = 0
KLE1 181645Z 13009KT 22/10 A2973 RMK A01 T02230097  RH  045%=      5-min Rain = 0
KLE1 181646Z 14009KT 22/10 A2973 RMK A01 T02230098  RH  045%=      5-min Rain = 0
KLE1 181647Z 15009KT 22/10 A2973 RMK A01 T02240099  RH  045%=      5-min Rain = 0
KLE1 181648Z 14010KT 23/10 A2973 RMK A01 T02260100  RH  045%=      5-min Rain = 0
KLE1 181649Z 13011KT 23/10 A2973 RMK A01 T02280100  RH  044%=      5-min Rain = 0
KLE1 181650Z 13008KT 23/10 A2973 RMK A01 T02290099  RH  044%=      5-min Rain = 0
KLE1 181651Z 13009KT 23/10 A2973 RMK A01 T02280100  RH  044%=      5-min Rain = 0
KLE1 181652Z 13011KT 23/10 A2973 RMK A01 T02290102  RH  044%=      5-min Rain = 0
KLE1 181653Z 13009KT 23/10 A2973 RMK A01 T02300101  RH  044%=      5-min Rain = 0
KLE1 181654Z 14007KT 23/10 A2973 RMK A01 T02280101  RH  044%=      5-min Rain = 0
KLE1 181655Z 13010KT 23/10 A2973 RMK A01 T02280100  RH  044%=      5-min Rain = 0
KLE1 181656Z 14009KT 23/10 A2973 RMK A01 T02290101  RH  044%=      5-min Rain = 0
KLE1 181657Z 14009KT 23/10 A2973 RMK A01 T02300101  RH  044%=      5-min Rain = 0
KLE1 181658Z 15007KT 23/10 A2973 RMK A01 T02310102  RH  044%=      5-min Rain = 0
KLE1 181659Z 14009KT 23/10 A2972 RMK A01 T02330104  RH  044%=      5-min Rain = 0
KLE1 181700Z 13008KT 24/10 A2972 RMK A01 T02370104  RH  043%=      5-min Rain = 0
KLE1 181701Z 12010KT 24/10 A2972 RMK A01 T02380104  RH  043%=      5-min Rain = 0
KLE1 181702Z 13011KT 24/10 A2972 RMK A01 T02370104  RH  043%=      5-min Rain = 0
KLE1 181703Z 13009KT 24/10 A2972 RMK A01 T02370103  RH  043%=      5-min Rain = 0
KLE1 181704Z 13008KT 24/10 A2972 RMK A01 T02380104  RH  043%=      5-min Rain = 0
KLE1 181705Z 14009KT 24/11 A2972 RMK A01 T02380105  RH  043%=      5-min Rain = 0
KLE1 181706Z 12007KT 24/10 A2972 RMK A01 T02380104  RH  043%=      5-min Rain = 0
KLE1 181707Z 11011KT 24/11 A2971 RMK A01 T02370106  RH  044%=      5-min Rain = 0
KLE1 181708Z 12010KT 24/11 A2971 RMK A01 T02390106  RH  043%=      5-min Rain = 0
KLE1 181709Z 13009KT 24/11 A2971 RMK A01 T02390106  RH  043%=      5-min Rain = 0
KLE1 181710Z 13008KT 24/11 A2971 RMK A01 T02400107  RH  043%=      5-min Rain = 0
KLE1 181711Z 15007KT 24/11 A2971 RMK A01 T02420108  RH  043%=      5-min Rain = 0
KLE1 181712Z 18006KT 24/11 A2971 RMK A01 T02420108  RH  043%=      5-min Rain = 0
KLE1 181713Z 15007KT 24/11 A2971 RMK A01 T02410108  RH  043%=      5-min Rain = 0
KLE1 181714Z 14007KT 24/11 A2971 RMK A01 T02420110  RH  043%=      5-min Rain = 0
KLE1 181715Z 12006KT 25/11 A2971 RMK A01 T02450111  RH  043%=      5-min Rain = 0
KLE1 181716Z 13004KT 25/11 A2971 RMK A01 T02460111  RH  043%=      5-min Rain = 0
KLE1 181717Z 11006KT 25/11 A2971 RMK A01 T02480111  RH  042%=      5-min Rain = 0
KLE1 181718Z 13008KT 25/11 A2971 RMK A01 T02490112  RH  042%=      5-min Rain = 0
KLE1 181719Z 11008KT 25/11 A2971 RMK A01 T02480111  RH  042%=      5-min Rain = 0
KLE1 181720Z 14007KT 25/11 A2971 RMK A01 T02470111  RH  042%=      5-min Rain = 0
KLE1 181721Z 13007KT 25/11 A2971 RMK A01 T02470112  RH  043%=      5-min Rain = 0
KLE1 181722Z 13005KT 25/11 A297 RMK A01 T02480112  RH  042%=      5-min Rain = 0
KLE1 181723Z 15008KT 25/11 A297 RMK A01 T02490114  RH  043%=      5-min Rain = 0
KLE1 181724Z 14008G13KT 25/11 A297 RMK A01 T02520114  RH  042%=      5-min Rain = 0
KLE1 181725Z 15009KT 25/11 A297 RMK A01 T02520113  RH  042%=      5-min Rain = 0
KLE1 181726Z 13008KT 25/11 A297 RMK A01 T02530114  RH  042%=      5-min Rain = 0
KLE1 181727Z 12009KT 26/11 A297 RMK A01 T02550114  RH  041%=      5-min Rain = 0
KLE1 181728Z 12009KT 25/11 A297 RMK A01 T02540113  RH  041%=      5-min Rain = 0
KLE1 181729Z 13009KT 25/11 A297 RMK A01 T02530114  RH  042%=      5-min Rain = 0
KLE1 181730Z 13008KT 25/11 A297 RMK A01 T02530113  RH  042%=      5-min Rain = 0
KLE1 181731Z 15007KT 25/11 A297 RMK A01 T02540113  RH  041%=      5-min Rain = 0
KLE1 181732Z 14010KT 25/11 A297 RMK A01 T02540114  RH  041%=      5-min Rain = 0
KLE1 181733Z 14010KT 26/12 A2969 RMK A01 T02560115  RH  041%=      5-min Rain = 0
KLE1 181734Z 13011KT 26/12 A2969 RMK A01 T02610116  RH  040%=      5-min Rain = 0
KLE1 181735Z 14011KT 26/12 A2969 RMK A01 T02630117  RH  040%=      5-min Rain = 0
KLE1 181736Z 13010KT 27/12 A2969 RMK A01 T02650116  RH  039%=      5-min Rain = 0
KLE1 181737Z 14011KT 27/12 A2969 RMK A01 T02650115  RH  039%=      5-min Rain = 0
KLE1 181738Z 14009KT 26/12 A2969 RMK A01 T02630115  RH  040%=      5-min Rain = 0
KLE1 181739Z 12009KT 26/12 A2969 RMK A01 T02630115  RH  040%=      5-min Rain = 0
KLE1 181740Z 13011KT 26/12 A2969 RMK A01 T02630116  RH  040%=      5-min Rain = 0
KLE1 181741Z 12012KT 26/12 A2969 RMK A01 T02630116  RH  040%=      5-min Rain = 0
KLE1 181742Z 14011KT 26/12 A2969 RMK A01 T02640117  RH  040%=      5-min Rain = 0
KLE1 181743Z 12010KT 27/12 A2969 RMK A01 T02650115  RH  039%=      5-min Rain = 0
KLE1 181744Z 13010KT 27/12 A2969 RMK A01 T02650117  RH  040%=      5-min Rain = 0
KLE1 181745Z 13009G15KT 26/12 A2969 RMK A01 T02640116  RH  040%=      5-min Rain = 0
KLE1 181746Z 14013KT 27/12 A2968 RMK A01 T02650117  RH  040%=      5-min Rain = 0
KLE1 181747Z 15010KT 27/12 A2969 RMK A01 T02670117  RH  039%=      5-min Rain = 0
KLE1 181748Z 14010KT 27/12 A2969 RMK A01 T02680118  RH  039%=      5-min Rain = 0
KLE1 181749Z 13010KT 27/12 A2969 RMK A01 T02690116  RH  039%=      5-min Rain = 0
KLE1 181750Z 15008KT 27/12 A2969 RMK A01 T02680117  RH  039%=      5-min Rain = 0
KLE1 181751Z 16008KT 27/12 A2969 RMK A01 T02690118  RH  039%=      5-min Rain = 0
KLE1 181752Z 15006KT 27/12 A2969 RMK A01 T02710118  RH  039%=      5-min Rain = 0
KLE1 181753Z 13005KT 27/12 A2969 RMK A01 T02740121  RH  039%=      5-min Rain = 0
KLE1 181754Z 17007KT 28/12 A2968 RMK A01 T02760120  RH  038%=      5-min Rain = 0
KLE1 181755Z 17009KT 28/12 A2968 RMK A01 T02770118  RH  037%=      5-min Rain = 0
KLE1 181756Z 17006KT 28/12 A2968 RMK A01 T02760117  RH  037%=      5-min Rain = 0
KLE1 181757Z 18007KT 28/12 A2968 RMK A01 T02750117  RH  037%=      5-min Rain = 0
KLE1 181758Z 19009KT 28/12 A2968 RMK A01 T02760119  RH  038%=      5-min Rain = 0
KLE1 181759Z 16011KT 28/12 A2968 RMK A01 T02800120  RH  037%=      5-min Rain = 0
KLE1 181800Z 17011KT 28/12 A2968 RMK A01 T02810119  RH  036%=      5-min Rain = 0
KLE1 181801Z 17009KT 28/12 A2968 RMK A01 T02810118  RH  036%=      5-min Rain = 0
KLE1 181802Z 16009KT 28/12 A2968 RMK A01 T02800118  RH  037%=      5-min Rain = 0
KLE1 181803Z 15011KT 28/12 A2968 RMK A01 T02800118  RH  037%=      5-min Rain = 0
KLE1 181804Z 15010KT 28/12 A2968 RMK A01 T02800119  RH  037%=      5-min Rain = 0
KLE1 181805Z 14008KT 28/12 A2968 RMK A01 T02800119  RH  037%=      5-min Rain = 0
KLE1 181806Z 15008KT 28/12 A2968 RMK A01 T02810119  RH  037%=      5-min Rain = 0
KLE1 181807Z 15006KT 28/12 A2967 RMK A01 T02820120  RH  037%=      5-min Rain = 0
KLE1 181808Z 17009KT 29/12 A2967 RMK A01 T02850122  RH  036%=      5-min Rain = 0
KLE1 181809Z 15008KT 29/12 A2967 RMK A01 T02860120  RH  036%=      5-min Rain = 0
KLE1 181810Z 15011KT 29/12 A2967 RMK A01 T02870122  RH  036%=      5-min Rain = 0
KLE1 181811Z 14012KT 29/12 A2967 RMK A01 T02890121  RH  035%=      5-min Rain = 0
KLE1 181812Z 15013KT 29/12 A2967 RMK A01 T02850118  RH  036%=      5-min Rain = 0
KLE1 181813Z 15008KT 28/12 A2967 RMK A01 T02800117  RH  036%=      5-min Rain = 0
KLE1 181814Z 20009KT 28/12 A2967 RMK A01 T02800120  RH  037%=      5-min Rain = 0
KLE1 181815Z 20009KT 28/12 A2967 RMK A01 T02830120  RH  036%=      5-min Rain = 0
KLE1 181816Z 19011KT 28/12 A2967 RMK A01 T02840119  RH  036%=      5-min Rain = 0
KLE1 181817Z 18006KT 28/12 A2967 RMK A01 T02840119  RH  036%=      5-min Rain = 0
KLE1 181818Z 17007KT 28/12 A2966 RMK A01 T02810118  RH  036%=      5-min Rain = 0
KLE1 181819Z 19008KT 28/12 A2966 RMK A01 T02800118  RH  037%=      5-min Rain = 0
KLE1 181820Z 18011KT 28/12 A2966 RMK A01 T02800118  RH  037%=      5-min Rain = 0
KLE1 181821Z 18014KT 28/12 A2966 RMK A01 T02810119  RH  037%=      5-min Rain = 0
KLE1 181822Z 17012KT 28/12 A2966 RMK A01 T02810119  RH  037%=      5-min Rain = 0
KLE1 181823Z 17013KT 28/12 A2966 RMK A01 T02820119  RH  036%=      5-min Rain = 0
KLE1 181824Z 16011KT 28/12 A2966 RMK A01 T02820119  RH  036%=      5-min Rain = 0
KLE1 181825Z 17009KT 28/12 A2966 RMK A01 T02800118  RH  037%=      5-min Rain = 0
KLE1 181826Z 19007KT 28/12 A2966 RMK A01 T02790119  RH  037%=      5-min Rain = 0
KLE1 181827Z 19008KT 28/12 A2966 RMK A01 T02790119  RH  037%=      5-min Rain = 0
KLE1 181828Z 19009KT 28/12 A2966 RMK A01 T02790120  RH  037%=      5-min Rain = 0
KLE1 181829Z 17009KT 28/12 A2966 RMK A01 T02810121  RH  037%=      5-min Rain = 0
KLE1 181830Z 17009KT 28/12 A2966 RMK A01 T02840121  RH  037%=      5-min Rain = 0
KLE1 181831Z 18011KT 29/12 A2966 RMK A01 T02860123  RH  036%=      5-min Rain = 0
KLE1 181832Z 18015KT 29/12 A2966 RMK A01 T02870122  RH  036%=      5-min Rain = 0
KLE1 181833Z 18015KT 28/12 A2965 RMK A01 T02840120  RH  036%=      5-min Rain = 0
KLE1 181834Z 17014KT 28/12 A2965 RMK A01 T02820121  RH  037%=      5-min Rain = 0
KLE1 181835Z 17014KT 28/12 A2965 RMK A01 T02820121  RH  037%=      5-min Rain = 0
KLE1 181836Z 19013KT 28/12 A2965 RMK A01 T02840123  RH  037%=      5-min Rain = 0
KLE1 181837Z 19011KT 29/12 A2965 RMK A01 T02860122  RH  036%=      5-min Rain = 0
KLE1 181838Z 20012KT 29/12 A2965 RMK A01 T02870123  RH  036%=      5-min Rain = 0
KLE1 181839Z 20010KT 29/12 A2965 RMK A01 T02880123  RH  036%=      5-min Rain = 0
KLE1 181840Z 19009KT 29/12 A2965 RMK A01 T02880123  RH  036%=      5-min Rain = 0
KLE1 181841Z 19009KT 29/12 A2965 RMK A01 T02870122  RH  036%=      5-min Rain = 0
KLE1 181842Z 21010KT 29/12 A2965 RMK A01 T02890123  RH  036%=      5-min Rain = 0
KLE1 181843Z 20010KT 29/12 A2965 RMK A01 T02890124  RH  036%=      5-min Rain = 0
KLE1 181844Z 19010KT 29/12 A2965 RMK A01 T02880121  RH  036%=      5-min Rain = 0
KLE1 181845Z 18008KT 29/12 A2964 RMK A01 T02850121  RH  036%=      5-min Rain = 0
KLE1 181846Z 17008KT 28/12 A2964 RMK A01 T02840123  RH  037%=      5-min Rain = 0
KLE1 181847Z 16012KT 28/12 A2964 RMK A01 T02840123  RH  037%=      5-min Rain = 0
KLE1 181848Z 17013KT 29/12 A2964 RMK A01 T02860123  RH  037%=      5-min Rain = 0
KLE1 181849Z 19014KT 29/12 A2964 RMK A01 T02880124  RH  036%=      5-min Rain = 0
KLE1 181850Z 19015KT 29/12 A2964 RMK A01 T02880124  RH  036%=      5-min Rain = 0
KLE1 181851Z 20014KT 29/12 A2964 RMK A01 T02870124  RH  036%=      5-min Rain = 0
KLE1 181852Z 17013G18KT 29/12 A2964 RMK A01 T02860123  RH  037%=      5-min Rain = 0
KLE1 181853Z 17013KT 29/13 A2964 RMK A01 T02880126  RH  037%=      5-min Rain = 0
KLE1 181854Z 19015KT 29/13 A2964 RMK A01 T02900125  RH  036%=      5-min Rain = 0
KLE1 181855Z 20014KT 29/12 A2964 RMK A01 T02890123  RH  036%=      5-min Rain = 0
KLE1 181856Z 20014KT 29/12 A2964 RMK A01 T02850123  RH  037%=      5-min Rain = 0
KLE1 181857Z 19016KT 29/12 A2964 RMK A01 T02860124  RH  037%=      5-min Rain = 0
KLE1 181858Z 18012G17KT 29/12 A2964 RMK A01 T02870124  RH  037%=      5-min Rain = 0
KLE1 181859Z 18012G17KT 29/12 A2964 RMK A01 T02860124  RH  037%=      5-min Rain = 0
KLE1 181900Z 20012KT 29/12 A2964 RMK A01 T02860124  RH  037%=      5-min Rain = 0
KLE1 181901Z 19011KT 29/13 A2964 RMK A01 T02870126  RH  037%=      5-min Rain = 0
KLE1 181902Z 21013KT 29/13 A2964 RMK A01 T02910127  RH  036%=      5-min Rain = 0
KLE1 181903Z 21017KT 29/13 A2964 RMK A01 T02910125  RH  036%=      5-min Rain = 0
KLE1 181904Z 20015KT 29/13 A2964 RMK A01 T02890125  RH  036%=      5-min Rain = 0
KLE1 181905Z 21018KT 29/13 A2964 RMK A01 T02880125  RH  037%=      5-min Rain = 0
KLE1 181906Z 21018KT 29/13 A2964 RMK A01 T02850125  RH  037%=      5-min Rain = 0
KLE1 181907Z 21017G22KT 29/13 A2964 RMK A01 T02850126  RH  037%=      5-min Rain = 0
KLE1 181908Z 22015KT 29/13 A2964 RMK A01 T02860127  RH  038%=      5-min Rain = 0
KLE1 181909Z 22013KT 29/13 A2963 RMK A01 T02880127  RH  037%=      5-min Rain = 0
KLE1 181910Z 21015KT 29/13 A2963 RMK A01 T02890127  RH  037%=      5-min Rain = 0
KLE1 181911Z 21014KT 29/13 A2963 RMK A01 T02900127  RH  037%=      5-min Rain = 0
KLE1 181912Z 22014KT 29/13 A2963 RMK A01 T02910128  RH  037%=      5-min Rain = 0
KLE1 181913Z 22014KT 29/13 A2963 RMK A01 T02930127  RH  036%=      5-min Rain = 0
KLE1 181914Z 22016KT 29/13 A2963 RMK A01 T02920128  RH  036%=      5-min Rain = 0
KLE1 181915Z 22013KT 29/13 A2963 RMK A01 T02930127  RH  036%=      5-min Rain = 0
KLE1 181916Z 23012KT 29/13 A2963 RMK A01 T02930129  RH  036%=      5-min Rain = 0
KLE1 181917Z 22015KT 30/13 A2963 RMK A01 T02960128  RH  036%=      5-min Rain = 0
KLE1 181918Z 22014KT 30/13 A2963 RMK A01 T02960129  RH  036%=      5-min Rain = 0
KLE1 181919Z 21012KT 30/13 A2963 RMK A01 T02960129  RH  036%=      5-min Rain = 0
KLE1 181920Z 22012KT 30/13 A2963 RMK A01 T02960127  RH  035%=      5-min Rain = 0
KLE1 181921Z 22012KT 30/13 A2963 RMK A01 T02950128  RH  036%=      5-min Rain = 0
KLE1 181922Z 20012KT 30/13 A2963 RMK A01 T02950129  RH  036%=      5-min Rain = 0
KLE1 181923Z 20014KT 30/13 A2963 RMK A01 T02960127  RH  035%=      5-min Rain = 0
KLE1 181924Z 19012KT 29/13 A2963 RMK A01 T02940127  RH  036%=      5-min Rain = 0
KLE1 181925Z 20014KT 29/13 A2963 RMK A01 T02940127  RH  036%=      5-min Rain = 0
KLE1 181926Z 20012KT 30/13 A2963 RMK A01 T02950127  RH  036%=      5-min Rain = 0
KLE1 181927Z 19013KT 30/13 A2963 RMK A01 T02980128  RH  035%=      5-min Rain = 0
KLE1 181928Z 21010KT 30/13 A2963 RMK A01 T02990128  RH  035%=      5-min Rain = 0
KLE1 181929Z 20014KT 30/13 A2962 RMK A01 T02990127  RH  035%=      5-min Rain = 0
KLE1 181930Z 19014KT 30/13 A2962 RMK A01 T02950125  RH  035%=      5-min Rain = 0
KLE1 181931Z 19013KT 29/12 A2962 RMK A01 T02920124  RH  036%=      5-min Rain = 0
KLE1 181932Z 19012G17KT 29/13 A2962 RMK A01 T02910126  RH  036%=      5-min Rain = 0
KLE1 181933Z 20015KT 29/13 A2962 RMK A01 T02930126  RH  036%=      5-min Rain = 0
KLE1 181934Z 21014KT 29/13 A2962 RMK A01 T02940126  RH  035%=      5-min Rain = 0
KLE1 181935Z 21015KT 29/13 A2962 RMK A01 T02940126  RH  036%=      5-min Rain = 0
KLE1 181936Z 20014KT 30/13 A2962 RMK A01 T02960127  RH  035%=      5-min Rain = 0
KLE1 181937Z 20016KT 30/13 A2962 RMK A01 T02950126  RH  035%=      5-min Rain = 0
KLE1 181938Z 19013KT 29/13 A2962 RMK A01 T02930125  RH  036%=      5-min Rain = 0
KLE1 181939Z 18015KT 29/13 A2962 RMK A01 T02930125  RH  036%=      5-min Rain = 0
KLE1 181940Z 18013KT 29/13 A2962 RMK A01 T02930125  RH  035%=      5-min Rain = 0
KLE1 181941Z 20013KT 29/13 A2962 RMK A01 T02920126  RH  036%=      5-min Rain = 0
KLE1 181942Z 20015KT 29/13 A2962 RMK A01 T02930126  RH  036%=      5-min Rain = 0
KLE1 181943Z 19012KT 29/13 A2962 RMK A01 T02930125  RH  035%=      5-min Rain = 0
KLE1 181944Z 19011KT 29/13 A2962 RMK A01 T02920125  RH  036%=      5-min Rain = 0
KLE1 181945Z 19012KT 29/13 A2962 RMK A01 T02920126  RH  036%=      5-min Rain = 0
KLE1 181946Z 21013KT 29/13 A2962 RMK A01 T02930127  RH  036%=      5-min Rain = 0
KLE1 181947Z 21009KT 29/13 A2962 RMK A01 T02920125  RH  036%=      5-min Rain = 0
KLE1 181948Z 22009KT 29/13 A2962 RMK A01 T02910126  RH  036%=      5-min Rain = 0
KLE1 181949Z 23012KT 29/13 A2962 RMK A01 T02930128  RH  036%=      5-min Rain = 0
KLE1 181950Z 22012KT 30/13 A2962 RMK A01 T02950127  RH  036%=      5-min Rain = 0
KLE1 181951Z 22013KT 30/13 A2962 RMK A01 T02960128  RH  036%=      5-min Rain = 0
KLE1 181952Z 21015KT 30/13 A2962 RMK A01 T02960128  RH  036%=      5-min Rain = 0
KLE1 181953Z 21014KT 30/13 A2962 RMK A01 T02960126  RH  035%=      5-min Rain = 0
KLE1 181954Z 20014KT 29/13 A2962 RMK A01 T02940127  RH  036%=      5-min Rain = 0
KLE1 181955Z 22013KT 29/13 A2962 RMK A01 T02940127  RH  036%=      5-min Rain = 0
KLE1 181956Z 21009KT 29/13 A2962 RMK A01 T02930127  RH  036%=      5-min Rain = 0
KLE1 181957Z 20011KT 29/13 A2962 RMK A01 T02920127  RH  036%=      5-min Rain = 0
KLE1 181958Z 18012KT 29/13 A2962 RMK A01 T02920126  RH  036%=      5-min Rain = 0
KLE1 181959Z 20011G16KT 29/13 A2962 RMK A01 T02930126  RH  036%=      5-min Rain = 0
KLE1 182000Z 21014KT 29/13 A2962 RMK A01 T02930126  RH  036%=      5-min Rain = 0
KLE1 182001Z 20010KT 29/13 A2962 RMK A01 T02930126  RH  036%=      5-min Rain = 0
KLE1 182002Z 20009KT 29/13 A2962 RMK A01 T02930126  RH  036%=      5-min Rain = 0
KLE1 182003Z 18008KT 29/13 A2962 RMK A01 T02930126  RH  036%=      5-min Rain = 0
KLE1 182004Z 18010G16KT 29/13 A2961 RMK A01 T02930126  RH  036%=      5-min Rain = 0
KLE1 182005Z 19012KT 30/13 A2961 RMK A01 T02960127  RH  035%=      5-min Rain = 0
KLE1 182006Z 20009KT 30/13 A2961 RMK A01 T02960126  RH  035%=      5-min Rain = 0
KLE1 182007Z 21010KT 30/13 A2961 RMK A01 T02960127  RH  035%=      5-min Rain = 0
KLE1 182008Z 20013KT 30/13 A2961 RMK A01 T02970128  RH  035%=      5-min Rain = 0
KLE1 182009Z 19012KT 30/13 A2961 RMK A01 T02980126  RH  035%=      5-min Rain = 0
KLE1 182010Z 19010KT 30/13 A2961 RMK A01 T02990127  RH  035%=      5-min Rain = 0
KLE1 182011Z 19008KT 30/13 A2961 RMK A01 T02990126  RH  035%=      5-min Rain = 0
KLE1 182012Z 22007KT 30/13 A2961 RMK A01 T02960125  RH  035%=      5-min Rain = 0
KLE1 182013Z 21011KT 30/13 A2961 RMK A01 T02960129  RH  036%=      5-min Rain = 0
KLE1 182014Z 22011KT 30/13 A2961 RMK A01 T02990127  RH  035%=      5-min Rain = 0
KLE1 182015Z 21008KT 30/13 A2961 RMK A01 T03000128  RH  035%=      5-min Rain = 0
KLE1 182016Z 21009KT 30/13 A2961 RMK A01 T02990127  RH  035%=      5-min Rain = 0
KLE1 182017Z 20009KT 30/13 A2961 RMK A01 T02960125  RH  035%=      5-min Rain = 0
KLE1 182018Z 22008KT 29/13 A2961 RMK A01 T02940128  RH  036%=      5-min Rain = 0
KLE1 182019Z 23009KT 30/13 A2961 RMK A01 T02960127  RH  035%=      5-min Rain = 0
KLE1 182020Z 20012G17KT 30/13 A2961 RMK A01 T02970127  RH  035%=      5-min Rain = 0
KLE1 182021Z 19012KT 30/13 A2961 RMK A01 T02970127  RH  035%=      5-min Rain = 0
KLE1 182022Z 18011KT 30/13 A296 RMK A01 T02980127  RH  035%=      5-min Rain = 0
KLE1 182023Z 17013KT 30/13 A296 RMK A01 T03010127  RH  034%=      5-min Rain = 0
KLE1 182024Z 16013G18KT 30/13 A296 RMK A01 T03000126  RH  034%=      5-min Rain = 0
KLE1 182025Z 16010KT 30/13 A296 RMK A01 T02980126  RH  035%=      5-min Rain = 0
KLE1 182026Z 17010KT 30/13 A296 RMK A01 T02970127  RH  035%=      5-min Rain = 0
KLE1 182027Z 18010KT 30/13 A296 RMK A01 T03000128  RH  035%=      5-min Rain = 0
KLE1 182028Z 19011KT 30/13 A296 RMK A01 T03030128  RH  034%=      5-min Rain = 0
KLE1 182029Z 18012KT 30/13 A296 RMK A01 T03030128  RH  034%=      5-min Rain = 0
KLE1 182030Z 19010KT 30/13 A296 RMK A01 T03020127  RH  034%=      5-min Rain = 0
KLE1 182031Z 20011KT 30/13 A296 RMK A01 T03020127  RH  034%=      5-min Rain = 0
KLE1 182032Z 19011KT 30/13 A296 RMK A01 T03020128  RH  034%=      5-min Rain = 0
KLE1 182033Z 20012KT 30/13 A296 RMK A01 T03010126  RH  034%=      5-min Rain = 0
KLE1 182034Z 20012KT 30/13 A296 RMK A01 T03000127  RH  035%=      5-min Rain = 0
KLE1 182035Z 20008KT 30/13 A2959 RMK A01 T03000126  RH  034%=      5-min Rain = 0
KLE1 182036Z 18007KT 30/13 A2959 RMK A01 T02990127  RH  035%=      5-min Rain = 0
KLE1 182037Z 16013KT 30/13 A2959 RMK A01 T03000128  RH  035%=      5-min Rain = 0
KLE1 182038Z 17011KT 30/13 A2959 RMK A01 T03020127  RH  034%=      5-min Rain = 0
KLE1 182039Z 18008KT 30/13 A2959 RMK A01 T03020127  RH  034%=      5-min Rain = 0
KLE1 182040Z 14006KT 30/13 A2959 RMK A01 T03030128  RH  034%=      5-min Rain = 0
KLE1 182041Z 14006KT 30/13 A2959 RMK A01 T03030129  RH  034%=      5-min Rain = 0
KLE1 182042Z 14006KT 30/13 A2959 RMK A01 T03030127  RH  034%=      5-min Rain = 0
KLE1 182043Z 15006KT 30/13 A2959 RMK A01 T03020127  RH  034%=      5-min Rain = 0
KLE1 182044Z 19007KT 30/13 A2959 RMK A01 T03010129  RH  035%=      5-min Rain = 0
KLE1 182045Z 19012KT 31/13 A2959 RMK A01 T03050127  RH  034%=      5-min Rain = 0
KLE1 182046Z 19012KT 31/13 A2958 RMK A01 T03060126  RH  033%=      5-min Rain = 0
KLE1 182047Z 18011KT 31/13 A2958 RMK A01 T03060125  RH  033%=      5-min Rain = 0
KLE1 182048Z 19013KT 31/13 A2958 RMK A01 T03060126  RH  033%=      5-min Rain = 0
KLE1 182049Z 19012KT 31/13 A2958 RMK A01 T03070127  RH  033%=      5-min Rain = 0
KLE1 182050Z 20011KT 31/13 A2958 RMK A01 T03090126  RH  033%=      5-min Rain = 0
KLE1 182051Z 20012KT 31/13 A2958 RMK A01 T03080126  RH  033%=      5-min Rain = 0
KLE1 182052Z 20014KT 31/13 A2959 RMK A01 T03070126  RH  033%=      5-min Rain = 0
KLE1 182053Z 20011KT 31/13 A2959 RMK A01 T03100128  RH  033%=      5-min Rain = 0
KLE1 182054Z 20008KT 31/13 A2959 RMK A01 T03130127  RH  032%=      5-min Rain = 0
KLE1 182055Z 21008KT 31/13 A2958 RMK A01 T03120127  RH  032%=      5-min Rain = 0
KLE1 182056Z 20008KT 31/13 A2958 RMK A01 T03090126  RH  033%=      5-min Rain = 0
KLE1 182057Z 21010G16KT 31/13 A2958 RMK A01 T03070126  RH  033%=      5-min Rain = 0
KLE1 182058Z 21010G15KT 30/12 A2958 RMK A01 T03030123  RH  033%=      5-min Rain = 0
KLE1 182059Z 17012G17KT 30/12 A2958 RMK A01 T02980122  RH  034%=      5-min Rain = 0
KLE1 182100Z 18012KT 30/12 A2958 RMK A01 T02950121  RH  034%=      5-min Rain = 0
KLE1 182101Z 18013KT 29/12 A2958 RMK A01 T02930121  RH  035%=      5-min Rain = 0
KLE1 182102Z 18009KT 29/12 A2958 RMK A01 T02910121  RH  035%=      5-min Rain = 0
KLE1 182103Z 18008KT 29/12 A2958 RMK A01 T02910122  RH  035%=      5-min Rain = 0
KLE1 182104Z 19007KT 29/12 A2958 RMK A01 T02910122  RH  035%=      5-min Rain = 0
KLE1 182105Z 18007KT 29/12 A2958 RMK A01 T02910122  RH  035%=      5-min Rain = 0
KLE1 182106Z 17008KT 29/12 A2958 RMK A01 T02910122  RH  035%=      5-min Rain = 0
KLE1 182107Z 16009KT 29/12 A2958 RMK A01 T02910123  RH  035%=      5-min Rain = 0
KLE1 182108Z 17006KT 29/12 A2958 RMK A01 T02910123  RH  035%=      5-min Rain = 0
KLE1 182109Z 15008KT 29/12 A2958 RMK A01 T02910124  RH  036%=      5-min Rain = 0
KLE1 182110Z 16010KT 29/12 A2958 RMK A01 T02900124  RH  036%=      5-min Rain = 0
KLE1 182111Z 16006KT 29/12 A2958 RMK A01 T02900124  RH  036%=      5-min Rain = 0
KLE1 182112Z 18005KT 29/13 A2958 RMK A01 T02900125  RH  036%=      5-min Rain = 0
KLE1 182113Z 17007KT 29/13 A2958 RMK A01 T02900125  RH  036%=      5-min Rain = 0
KLE1 182114Z 18008KT 29/12 A2958 RMK A01 T02900124  RH  036%=      5-min Rain = 0
KLE1 182115Z 16010KT 29/12 A2958 RMK A01 T02900124  RH  036%=      5-min Rain = 0
KLE1 182116Z 16012KT 29/12 A2958 RMK A01 T02900124  RH  036%=      5-min Rain = 0
KLE1 182117Z 15014KT 29/12 A2958 RMK A01 T02900124  RH  036%=      5-min Rain = 0
KLE1 182118Z 15010KT 29/12 A2958 RMK A01 T02890123  RH  036%=      5-min Rain = 0
KLE1 182119Z 17009KT 29/12 A2958 RMK A01 T02880123  RH  036%=      5-min Rain = 0
KLE1 182120Z 15011G16KT 29/12 A2958 RMK A01 T02870123  RH  036%=      5-min Rain = 0
KLE1 182121Z 14012KT 29/12 A2958 RMK A01 T02870123  RH  036%=      5-min Rain = 0
KLE1 182122Z 15010KT 29/12 A2958 RMK A01 T02860123  RH  036%=      5-min Rain = 0
KLE1 182123Z 16007KT 29/12 A2958 RMK A01 T02860122  RH  036%=      5-min Rain = 0
KLE1 182124Z 15007KT 29/12 A2958 RMK A01 T02860123  RH  036%=      5-min Rain = 0
KLE1 182125Z 14009KT 29/12 A2958 RMK A01 T02860123  RH  037%=      5-min Rain = 0
KLE1 182126Z 16010KT 29/12 A2958 RMK A01 T02860124  RH  037%=      5-min Rain = 0
KLE1 182127Z 16011KT 29/12 A2958 RMK A01 T02860123  RH  037%=      5-min Rain = 0
KLE1 182128Z 16010KT 29/12 A2958 RMK A01 T02860122  RH  036%=      5-min Rain = 0
KLE1 182129Z 13008KT 29/12 A2958 RMK A01 T02860123  RH  037%=      5-min Rain = 0
KLE1 182130Z 12008KT 29/12 A2958 RMK A01 T02850123  RH  037%=      5-min Rain = 0
KLE1 182131Z 12008KT 29/12 A2957 RMK A01 T02850123  RH  037%=      5-min Rain = 0
KLE1 182132Z 11006KT 28/12 A2957 RMK A01 T02840124  RH  037%=      5-min Rain = 0
KLE1 182133Z 10005KT 28/12 A2957 RMK A01 T02840124  RH  037%=      5-min Rain = 0
KLE1 182134Z 11005KT 28/12 A2957 RMK A01 T02830123  RH  037%=      5-min Rain = 0
KLE1 182135Z 10006KT 28/12 A2957 RMK A01 T02830123  RH  037%=      5-min Rain = 0
KLE1 182136Z 11006KT 28/12 A2958 RMK A01 T02830123  RH  037%=      5-min Rain = 0
KLE1 182137Z 11006KT 28/12 A2958 RMK A01 T02830123  RH  037%=      5-min Rain = 0
KLE1 182138Z 12003KT 28/12 A2958 RMK A01 T02830123  RH  037%=      5-min Rain = 0
KLE1 182139Z 08001KT 28/12 A2959 RMK A01 T02830123  RH  037%=      5-min Rain = 0
KLE1 182140Z 24003KT 28/12 A2959 RMK A01 T02830123  RH  037%=      5-min Rain = 0
KLE1 182141Z 27008G13KT 28/12 A296 RMK A01 T02820123  RH  037%=      5-min Rain = 0
KLE1 182142Z 28013KT 28/13 A296 RMK A01 T02810134  RH  040%=      5-min Rain = 0
KLE1 182143Z 30017KT 27/15 A296 RMK A01 T02690145  RH  047%=      5-min Rain = 0
KLE1 182144Z 30034KT 25/14 A296 RMK A01 T02480144  RH  052%=      5-min Rain = 0
KLE1 182145Z 30023G32KT 24/14 A2961 RMK A01 T02360140  RH  055%=      5-min Rain = 0.02
KLE1 182146Z 28015G21KT 23/15 A2962 RMK A01 T02270147  RH  061%=      5-min Rain = 0.02
KLE1 182147Z 29006G11KT 22/15 A2963 RMK A01 T02160154  RH  068%=      5-min Rain = 0.04
KLE1 182148Z 20012G19KT 21/15 A2963 RMK A01 T02100154  RH  070%=      5-min Rain = 0.03
KLE1 182149Z 21014KT 21/16 A2963 RMK A01 T02130155  RH  069%=      5-min Rain = 0.02
KLE1 182150Z 23008G15KT 21/15 A2963 RMK A01 T02100153  RH  070%=      5-min Rain = 0.06
KLE1 182151Z 21007KT 21/16 A2963 RMK A01 T02080155  RH  071%=      5-min Rain = 0.08
KLE1 182152Z 11007KT 20/16 A2961 RMK A01 T02040155  RH  074%=      5-min Rain = 0.06
KLE1 182153Z 09011KT 20/16 A296 RMK A01 T02000159  RH  077%=      5-min Rain = 0
KLE1 182154Z 08017KT 20/16 A2959 RMK A01 T01990157  RH  077%=      5-min Rain = 0.01
KLE1 182155Z 08017G23KT 20/15 A2959 RMK A01 T02020151  RH  073%=      5-min Rain = 0
KLE1 182156Z 07014KT 21/16 A2959 RMK A01 T02060155  RH  072%=      5-min Rain = 0
KLE1 182157Z 07012KT 21/16 A2959 RMK A01 T02060156  RH  073%=      5-min Rain = 0
KLE1 182158Z 07012KT 21/16 A296 RMK A01 T02050158  RH  074%=      5-min Rain = 0
KLE1 182159Z 06008KT 21/16 A296 RMK A01 T02050159  RH  075%=      5-min Rain = 0.01
KLE1 182200Z 06008KT 21/16 A296 RMK A01 T02050162  RH  077%=      5-min Rain = 0.01
KLE1 182201Z 05011KT 20/17 A296 RMK A01 T02040166  RH  079%=      5-min Rain = 0
KLE1 182202Z 05012KT 20/17 A296 RMK A01 T02020167  RH  080%=      5-min Rain = 0
KLE1 182203Z 04012KT 20/17 A2959 RMK A01 T02000168  RH  082%=      5-min Rain = 0
KLE1 182204Z 03010KT 20/17 A2959 RMK A01 T01980168  RH  083%=      5-min Rain = 0
KLE1 182205Z 04009KT 20/17 A2959 RMK A01 T01970171  RH  085%=      5-min Rain = 0
KLE1 182206Z 05011KT 20/17 A2959 RMK A01 T01960169  RH  085%=      5-min Rain = 0.02
KLE1 182207Z 05011KT 20/16 A2959 RMK A01 T01970163  RH  081%=      5-min Rain = 0
KLE1 182208Z 06009KT 20/16 A2959 RMK A01 T02010163  RH  078%=      5-min Rain = 0
KLE1 182209Z 05008KT 20/17 A2959 RMK A01 T02040170  RH  081%=      5-min Rain = 0
KLE1 182210Z 05008KT 20/17 A2959 RMK A01 T02040168  RH  079%=      5-min Rain = 0
KLE1 182211Z 04006KT 21/17 A2959 RMK A01 T02050167  RH  079%=      5-min Rain = 0
KLE1 182212Z 08006KT 21/17 A296 RMK A01 T02050169  RH  080%=      5-min Rain = 0
KLE1 182213Z 10008KT 21/17 A296 RMK A01 T02060172  RH  081%=      5-min Rain = 0
KLE1 182214Z 09009KT 21/18 A296 RMK A01 T02080175  RH  081%=      5-min Rain = 0
KLE1 182215Z 09009KT 21/17 A2959 RMK A01 T02090172  RH  080%=      5-min Rain = 0
KLE1 182216Z 07008KT 21/16 A2959 RMK A01 T02100162  RH  074%=      5-min Rain = 0
KLE1 182217Z 07007KT 21/16 A2959 RMK A01 T02110160  RH  073%=      5-min Rain = 0
KLE1 182218Z 09010KT 21/17 A2959 RMK A01 T02120170  RH  077%=      5-min Rain = 0
KLE1 182219Z 10009KT 21/17 A2959 RMK A01 T02100171  RH  078%=      5-min Rain = 0
KLE1 182220Z 10009KT 21/17 A2959 RMK A01 T02090168  RH  077%=      5-min Rain = 0
KLE1 182221Z 09009KT 21/17 A2959 RMK A01 T02090169  RH  078%=      5-min Rain = 0
KLE1 182222Z 09009KT 21/17 A2959 RMK A01 T02090165  RH  076%=      5-min Rain = 0
KLE1 182223Z 09007KT 21/17 A2959 RMK A01 T02090168  RH  077%=      5-min Rain = 0
KLE1 182224Z 08008KT 21/17 A2959 RMK A01 T02090165  RH  076%=      5-min Rain = 0
KLE1 182225Z 08008KT 21/17 A2959 RMK A01 T02090165  RH  076%=      5-min Rain = 0
KLE1 182226Z 08008KT 21/17 A2958 RMK A01 T02090169  RH  078%=      5-min Rain = 0
KLE1 182227Z 08009KT 21/17 A2958 RMK A01 T02090171  RH  079%=      5-min Rain = 0
KLE1 182228Z 07009KT 21/17 A2958 RMK A01 T02080170  RH  079%=      5-min Rain = 0
KLE1 182229Z 06008KT 21/17 A2958 RMK A01 T02080169  RH  078%=      5-min Rain = 0
KLE1 182230Z 06008KT 21/17 A2958 RMK A01 T02070171  RH  080%=      5-min Rain = 0
KLE1 182231Z 05009KT 21/17 A2958 RMK A01 T02070172  RH  080%=      5-min Rain = 0
KLE1 182232Z 05009KT 21/17 A2958 RMK A01 T02070172  RH  080%=      5-min Rain = 0
KLE1 182233Z 04008KT 21/17 A2958 RMK A01 T02070172  RH  080%=      5-min Rain = 0
KLE1 182234Z 04008KT 21/17 A2958 RMK A01 T02080172  RH  080%=      5-min Rain = 0
KLE1 182235Z 05007KT 21/17 A2958 RMK A01 T02080172  RH  080%=      5-min Rain = 0
KLE1 182236Z 05008KT 21/17 A2958 RMK A01 T02070169  RH  078%=      5-min Rain = 0
KLE1 182237Z 05008KT 21/17 A2958 RMK A01 T02080171  RH  079%=      5-min Rain = 0
KLE1 182238Z 05007KT 21/17 A2958 RMK A01 T02080172  RH  080%=      5-min Rain = 0
KLE1 182239Z 04007KT 21/17 A2958 RMK A01 T02080172  RH  079%=      5-min Rain = 0
KLE1 182240Z 04007KT 21/17 A2958 RMK A01 T02090170  RH  079%=      5-min Rain = 0
KLE1 182241Z 04007KT 21/17 A2958 RMK A01 T02090168  RH  078%=      5-min Rain = 0
KLE1 182242Z 04007KT 21/17 A2958 RMK A01 T02090167  RH  077%=      5-min Rain = 0
KLE1 182243Z 04007KT 21/17 A2958 RMK A01 T02090167  RH  077%=      5-min Rain = 0
KLE1 182244Z 04007KT 21/17 A2958 RMK A01 T02090166  RH  076%=      5-min Rain = 0
KLE1 182245Z 04007KT 21/17 A2958 RMK A01 T02090167  RH  077%=      5-min Rain = 0
KLE1 182246Z 04007KT 21/17 A2958 RMK A01 T02090165  RH  076%=      5-min Rain = 0
KLE1 182247Z 04007KT 21/17 A2958 RMK A01 T02090166  RH  076%=      5-min Rain = 0
KLE1 182248Z 04007KT 21/17 A2958 RMK A01 T02090165  RH  076%=      5-min Rain = 0
KLE1 182249Z 04008KT 21/17 A2958 RMK A01 T02100167  RH  076%=      5-min Rain = 0
KLE1 182250Z 04007KT 21/17 A2957 RMK A01 T02100169  RH  077%=      5-min Rain = 0
KLE1 182251Z 04008KT 21/17 A2957 RMK A01 T02090168  RH  077%=      5-min Rain = 0
KLE1 182252Z 05007KT 21/17 A2957 RMK A01 T02090168  RH  077%=      5-min Rain = 0
KLE1 182253Z 05008KT 21/17 A2957 RMK A01 T02090171  RH  079%=      5-min Rain = 0
KLE1 182254Z 05008KT 21/17 A2957 RMK A01 T02100172  RH  079%=      5-min Rain = 0
KLE1 182255Z 04008KT 21/17 A2957 RMK A01 T02100174  RH  080%=      5-min Rain = 0
KLE1 182256Z 04008KT 21/17 A2957 RMK A01 T02100173  RH  079%=      5-min Rain = 0
KLE1 182257Z 05008KT 21/17 A2957 RMK A01 T02100173  RH  079%=      5-min Rain = 0
KLE1 182258Z 05008KT 21/17 A2957 RMK A01 T02100172  RH  079%=      5-min Rain = 0
KLE1 182259Z 05008KT 21/17 A2957 RMK A01 T02100171  RH  078%=      5-min Rain = 0
KLE1 182300Z 05008KT 21/17 A2957 RMK A01 T02100171  RH  078%=      5-min Rain = 0
KLE1 182301Z 05007KT 21/17 A2957 RMK A01 T02110172  RH  079%=      5-min Rain = 0
KLE1 182302Z 05008KT 21/17 A2957 RMK A01 T02120172  RH  078%=      5-min Rain = 0
KLE1 182303Z 06008KT 21/17 A2957 RMK A01 T02130168  RH  075%=      5-min Rain = 0
KLE1 182304Z 05009KT 21/17 A2957 RMK A01 T02130169  RH  075%=      5-min Rain = 0
KLE1 182305Z 05008KT 21/17 A2957 RMK A01 T02140167  RH  074%=      5-min Rain = 0
KLE1 182306Z 05008KT 21/17 A2957 RMK A01 T02140167  RH  074%=      5-min Rain = 0
KLE1 182307Z 05008KT 22/17 A2957 RMK A01 T02150168  RH  075%=      5-min Rain = 0
KLE1 182308Z 05009KT 22/16 A2957 RMK A01 T02150164  RH  073%=      5-min Rain = 0
KLE1 182309Z 05008KT 22/17 A2957 RMK A01 T02160165  RH  073%=      5-min Rain = 0
KLE1 182310Z 05009KT 22/17 A2957 RMK A01 T02160166  RH  073%=      5-min Rain = 0
KLE1 182311Z 05009KT 22/17 A2957 RMK A01 T02160167  RH  073%=      5-min Rain = 0
KLE1 182312Z 05009KT 22/17 A2957 RMK A01 T02160167  RH  074%=      5-min Rain = 0
KLE1 182313Z 05009KT 22/17 A2957 RMK A01 T02160166  RH  073%=      5-min Rain = 0
KLE1 182314Z 05008KT 22/17 A2957 RMK A01 T02160165  RH  073%=      5-min Rain = 0
KLE1 182315Z 05009KT 22/16 A2957 RMK A01 T02160164  RH  072%=      5-min Rain = 0
KLE1 182316Z 05010KT 22/17 A2957 RMK A01 T02160165  RH  073%=      5-min Rain = 0
KLE1 182317Z 05010KT 22/16 A2957 RMK A01 T02160163  RH  072%=      5-min Rain = 0
KLE1 182318Z 05010KT 22/16 A2957 RMK A01 T02160163  RH  072%=      5-min Rain = 0
KLE1 182319Z 05011KT 22/16 A2957 RMK A01 T02160163  RH  072%=      5-min Rain = 0
KLE1 182320Z 05011KT 22/16 A2957 RMK A01 T02150164  RH  072%=      5-min Rain = 0
KLE1 182321Z 06011KT 22/16 A2957 RMK A01 T02150164  RH  073%=      5-min Rain = 0
KLE1 182322Z 05011KT 21/17 A2957 RMK A01 T02140165  RH  073%=      5-min Rain = 0
KLE1 182323Z 05010KT 21/16 A2957 RMK A01 T02140164  RH  073%=      5-min Rain = 0
KLE1 182324Z 06010KT 21/16 A2957 RMK A01 T02130164  RH  074%=      5-min Rain = 0
KLE1 182325Z 06011KT 21/16 A2957 RMK A01 T02130164  RH  074%=      5-min Rain = 0
KLE1 182326Z 06011KT 21/16 A2957 RMK A01 T02130164  RH  074%=      5-min Rain = 0
KLE1 182327Z 06011KT 21/17 A2957 RMK A01 T02120165  RH  074%=      5-min Rain = 0
KLE1 182328Z 06011KT 21/16 A2957 RMK A01 T02120164  RH  074%=      5-min Rain = 0
KLE1 182329Z 06011KT 21/16 A2957 RMK A01 T02120163  RH  074%=      5-min Rain = 0
KLE1 182330Z 06011KT 21/16 A2956 RMK A01 T02120162  RH  073%=      5-min Rain = 0
KLE1 182331Z 06010KT 21/16 A2956 RMK A01 T02110162  RH  073%=      5-min Rain = 0
KLE1 182332Z 06010KT 21/16 A2956 RMK A01 T02120162  RH  073%=      5-min Rain = 0
KLE1 182333Z 06009KT 21/16 A2956 RMK A01 T02120164  RH  074%=      5-min Rain = 0
KLE1 182334Z 06009KT 21/16 A2956 RMK A01 T02120163  RH  074%=      5-min Rain = 0
KLE1 182335Z 06010KT 21/16 A2956 RMK A01 T02110162  RH  073%=      5-min Rain = 0
KLE1 182336Z 06010KT 21/16 A2956 RMK A01 T02120161  RH  073%=      5-min Rain = 0
KLE1 182337Z 06011KT 21/16 A2956 RMK A01 T02110159  RH  072%=      5-min Rain = 0
KLE1 182338Z 06010KT 21/16 A2956 RMK A01 T02130159  RH  071%=      5-min Rain = 0
KLE1 182339Z 06010KT 21/16 A2956 RMK A01 T02130158  RH  071%=      5-min Rain = 0
KLE1 182340Z 06009KT 21/16 A2956 RMK A01 T02140158  RH  070%=      5-min Rain = 0
KLE1 182341Z 06010KT 21/16 A2956 RMK A01 T02140158  RH  070%=      5-min Rain = 0
KLE1 182342Z 06009KT 21/16 A2956 RMK A01 T02140158  RH  070%=      5-min Rain = 0
KLE1 182343Z 06010KT 21/16 A2956 RMK A01 T02140158  RH  070%=      5-min Rain = 0
KLE1 182344Z 06010KT 21/16 A2956 RMK A01 T02140158  RH  070%=      5-min Rain = 0
KLE1 182345Z 06010KT 21/16 A2956 RMK A01 T02140158  RH  070%=      5-min Rain = 0
KLE1 182346Z 06009KT 21/16 A2956 RMK A01 T02140157  RH  070%=      5-min Rain = 0
KLE1 182347Z 06010KT 22/16 A2956 RMK A01 T02150158  RH  070%=      5-min Rain = 0
KLE1 182348Z 06010KT 22/16 A2956 RMK A01 T02150156  RH  069%=      5-min Rain = 0
KLE1 182349Z 06009KT 22/16 A2956 RMK A01 T02150158  RH  070%=      5-min Rain = 0
KLE1 182350Z 06010KT 22/16 A2956 RMK A01 T02150158  RH  070%=      5-min Rain = 0
KLE1 182351Z 06009KT 22/16 A2956 RMK A01 T02150158  RH  070%=      5-min Rain = 0
KLE1 182352Z 06009KT 22/16 A2956 RMK A01 T02150157  RH  070%=      5-min Rain = 0
KLE1 182353Z 06009KT 22/16 A2956 RMK A01 T02150157  RH  070%=      5-min Rain = 0
KLE1 182354Z 06009KT 22/16 A2956 RMK A01 T02150156  RH  069%=      5-min Rain = 0
KLE1 182355Z 06008KT 22/16 A2956 RMK A01 T02150156  RH  069%=      5-min Rain = 0
KLE1 182356Z 06008KT 22/16 A2956 RMK A01 T02160157  RH  069%=      5-min Rain = 0
KLE1 182357Z 06008KT 22/16 A2956 RMK A01 T02150156  RH  069%=      5-min Rain = 0
KLE1 182358Z 06008KT 22/16 A2956 RMK A01 T02150156  RH  069%=      5-min Rain = 0
KLE1 182359Z 06008KT 22/16 A2956 RMK A01 T02150157  RH  069%=      5-min Rain = 0
KLE1 190000Z 06008KT 22/16 A2956 RMK A01 T02150155  RH  068%=      5-min Rain = 0
KLE1 190001Z 06008KT 22/15 A2956 RMK A01 T02150154  RH  068%=      5-min Rain = 0
KLE1 190002Z 06008KT 22/15 A2956 RMK A01 T02160154  RH  068%=      5-min Rain = 0
KLE1 190003Z 06008KT 22/15 A2956 RMK A01 T02170154  RH  068%=      5-min Rain = 0
KLE1 190004Z 06009KT 22/16 A2956 RMK A01 T02170155  RH  068%=      5-min Rain = 0
KLE1 190005Z 06008KT 22/16 A2956 RMK A01 T02170155  RH  068%=      5-min Rain = 0
KLE1 190006Z 06008KT 22/16 A2956 RMK A01 T02170156  RH  068%=      5-min Rain = 0
KLE1 190007Z 06008KT 22/16 A2956 RMK A01 T02160155  RH  068%=      5-min Rain = 0
KLE1 190008Z 06008KT 22/16 A2956 RMK A01 T02160155  RH  068%=      5-min Rain = 0
KLE1 190009Z 06008KT 22/15 A2956 RMK A01 T02160154  RH  068%=      5-min Rain = 0
KLE1 190010Z 06008KT 22/15 A2956 RMK A01 T02160154  RH  068%=      5-min Rain = 0
KLE1 190011Z 06008KT 22/15 A2956 RMK A01 T02170154  RH  068%=      5-min Rain = 0
KLE1 190012Z 06007KT 22/15 A2956 RMK A01 T02170154  RH  067%=      5-min Rain = 0
KLE1 190013Z 06008KT 22/15 A2956 RMK A01 T02170154  RH  068%=      5-min Rain = 0
KLE1 190014Z 05007KT 22/15 A2956 RMK A01 T02170154  RH  067%=      5-min Rain = 0
KLE1 190015Z 05007KT 22/15 A2956 RMK A01 T02170153  RH  067%=      5-min Rain = 0
KLE1 190016Z 05007KT 22/15 A2956 RMK A01 T02170153  RH  067%=      5-min Rain = 0
KLE1 190017Z 05006KT 22/15 A2956 RMK A01 T02170153  RH  067%=      5-min Rain = 0
KLE1 190018Z 05006KT 22/15 A2956 RMK A01 T02170152  RH  067%=      5-min Rain = 0
KLE1 190019Z 04006KT 22/15 A2956 RMK A01 T02170153  RH  067%=      5-min Rain = 0
KLE1 190020Z 04006KT 22/15 A2956 RMK A01 T02170153  RH  067%=      5-min Rain = 0
KLE1 190021Z 04006KT 22/15 A2956 RMK A01 T02170152  RH  066%=      5-min Rain = 0
KLE1 190022Z 04006KT 22/15 A2956 RMK A01 T02170151  RH  066%=      5-min Rain = 0
KLE1 190023Z 04007KT 22/15 A2956 RMK A01 T02170151  RH  066%=      5-min Rain = 0
KLE1 190024Z 04007KT 22/15 A2956 RMK A01 T02180149  RH  065%=      5-min Rain = 0
KLE1 190025Z 03007KT 22/15 A2956 RMK A01 T02190150  RH  065%=      5-min Rain = 0
KLE1 190026Z 03006KT 22/15 A2956 RMK A01 T02190151  RH  065%=      5-min Rain = 0
KLE1 190027Z 03006KT 22/15 A2956 RMK A01 T02190152  RH  065%=      5-min Rain = 0
KLE1 190028Z 02007KT 22/15 A2956 RMK A01 T02180153  RH  066%=      5-min Rain = 0
KLE1 190029Z 36007KT 22/16 A2956 RMK A01 T02170155  RH  068%=      5-min Rain = 0
KLE1 190030Z 35008KT 22/16 A2957 RMK A01 T02160158  RH  070%=      5-min Rain = 0
KLE1 190031Z 34008KT 21/16 A2957 RMK A01 T02130160  RH  071%=      5-min Rain = 0
KLE1 190032Z 34008KT 21/16 A2957 RMK A01 T02110160  RH  072%=      5-min Rain = 0
KLE1 190033Z 33008KT 21/16 A2957 RMK A01 T02100160  RH  073%=      5-min Rain = 0
KLE1 190034Z 33008KT 21/16 A2957 RMK A01 T02100161  RH  074%=      5-min Rain = 0
KLE1 190035Z 33008KT 21/16 A2957 RMK A01 T02090159  RH  073%=      5-min Rain = 0
KLE1 190036Z 34010KT 21/16 A2958 RMK A01 T02090156  RH  072%=      5-min Rain = 0
KLE1 190037Z 32008KT 21/16 A2959 RMK A01 T02100156  RH  071%=      5-min Rain = 0
KLE1 190038Z 27015KT 21/16 A296 RMK A01 T02110159  RH  072%=      5-min Rain = 0
KLE1 190039Z 27022G29KT 21/16 A296 RMK A01 T02100162  RH  074%=      5-min Rain = 0
KLE1 190040Z 27025G32KT 21/16 A2961 RMK A01 T02090158  RH  073%=      5-min Rain = 0
KLE1 190041Z 28020KT 21/16 A2962 RMK A01 T02100155  RH  071%=      5-min Rain = 0.02
KLE1 190042Z 27020KT 21/16 A2962 RMK A01 T02090159  RH  073%=      5-min Rain = 0.04
KLE1 190043Z 29015G23KT 20/14 A2962 RMK A01 T02020142  RH  068%=      5-min Rain = 0.04
KLE1 190044Z 30012KT 20/14 A2961 RMK A01 T01960140  RH  070%=      5-min Rain = 0.02
KLE1 190045Z 32010KT 20/14 A2961 RMK A01 T01960138  RH  070%=      5-min Rain = 0.01
KLE1 190046Z 32006KT 20/13 A2961 RMK A01 T01970132  RH  066%=      5-min Rain = 0.01
KLE1 190047Z 32007KT 20/14 A296 RMK A01 T01980138  RH  068%=      5-min Rain = 0.02
KLE1 190048Z 31007KT 20/14 A296 RMK A01 T01950142  RH  071%=      5-min Rain = 0.01
KLE1 190049Z 30010KT 19/14 A296 RMK A01 T01920140  RH  072%=      5-min Rain = 0
KLE1 190050Z 32009KT 19/14 A296 RMK A01 T01910138  RH  072%=      5-min Rain = 0
KLE1 190051Z 32007KT 19/14 A296 RMK A01 T01910137  RH  071%=      5-min Rain = 0
KLE1 190052Z 35007KT 19/14 A2959 RMK A01 T01910140  RH  072%=      5-min Rain = 0
KLE1 190053Z 01010KT 19/14 A2959 RMK A01 T01900143  RH  074%=      5-min Rain = 0.01
KLE1 190054Z 01010KT 19/14 A2958 RMK A01 T01890142  RH  074%=      5-min Rain = 0
KLE1 190055Z 02010KT 19/14 A2958 RMK A01 T01880144  RH  075%=      5-min Rain = 0
KLE1 190056Z 03010KT 19/14 A2957 RMK A01 T01870143  RH  075%=      5-min Rain = 0
KLE1 190057Z 03010KT 19/14 A2957 RMK A01 T01900144  RH  075%=      5-min Rain = 0
KLE1 190058Z 04011KT 19/14 A2957 RMK A01 T01940143  RH  072%=      5-min Rain = 0
KLE1 190059Z 03011KT 20/14 A2957 RMK A01 T02000144  RH  070%=      5-min Rain = 0
KLE1 190100Z 04011KT 20/15 A2957 RMK A01 T02020148  RH  071%=      5-min Rain = 0
KLE1 190101Z 05011KT 20/15 A2957 RMK A01 T02010152  RH  073%=      5-min Rain = 0
KLE1 190102Z 06012KT 20/15 A2957 RMK A01 T01990153  RH  075%=      5-min Rain = 0
KLE1 190103Z 06010KT 20/15 A2957 RMK A01 T01950154  RH  077%=      5-min Rain = 0
KLE1 190104Z 06008KT 19/16 A2957 RMK A01 T01930157  RH  079%=      5-min Rain = 0
KLE1 190105Z 05007KT 19/16 A2958 RMK A01 T01910158  RH  081%=      5-min Rain = 0
KLE1 190106Z 04005KT 19/16 A2958 RMK A01 T01900158  RH  082%=      5-min Rain = 0
KLE1 190107Z 04006KT 19/16 A2958 RMK A01 T01900158  RH  082%=      5-min Rain = 0
KLE1 190108Z 06007KT 19/16 A2957 RMK A01 T01900157  RH  081%=      5-min Rain = 0
KLE1 190109Z 06007KT 19/16 A2957 RMK A01 T01910156  RH  080%=      5-min Rain = 0
KLE1 190110Z 05007KT 19/16 A2957 RMK A01 T01920158  RH  081%=      5-min Rain = 0
KLE1 190111Z 04007KT 19/16 A2957 RMK A01 T01920159  RH  081%=      5-min Rain = 0
KLE1 190112Z 04008KT 19/16 A2957 RMK A01 T01910159  RH  081%=      5-min Rain = 0
KLE1 190113Z 04008KT 19/16 A2957 RMK A01 T01910158  RH  081%=      5-min Rain = 0
KLE1 190114Z 05008KT 19/16 A2957 RMK A01 T01910157  RH  081%=      5-min Rain = 0
KLE1 190115Z 06008KT 19/16 A2957 RMK A01 T01910157  RH  080%=      5-min Rain = 0
KLE1 190116Z 06007KT 19/16 A2957 RMK A01 T01920157  RH  080%=      5-min Rain = 0
KLE1 190117Z 06007KT 19/16 A2957 RMK A01 T01920157  RH  080%=      5-min Rain = 0
KLE1 190118Z 07007KT 19/16 A2957 RMK A01 T01930157  RH  080%=      5-min Rain = 0
KLE1 190119Z 07007KT 19/16 A2957 RMK A01 T01940157  RH  079%=      5-min Rain = 0
KLE1 190120Z 07007KT 19/16 A2957 RMK A01 T01940157  RH  079%=      5-min Rain = 0
KLE1 190121Z 08007KT 19/16 A2957 RMK A01 T01940158  RH  080%=      5-min Rain = 0
KLE1 190122Z 09006KT 19/16 A2957 RMK A01 T01940158  RH  080%=      5-min Rain = 0
KLE1 190123Z 08006KT 19/16 A2957 RMK A01 T01930158  RH  080%=      5-min Rain = 0
KLE1 190124Z 08006KT 19/16 A2957 RMK A01 T01930157  RH  080%=      5-min Rain = 0
KLE1 190125Z 08006KT 19/16 A2957 RMK A01 T01920156  RH  079%=      5-min Rain = 0
KLE1 190126Z 07006KT 19/16 A2958 RMK A01 T01930155  RH  079%=      5-min Rain = 0
KLE1 190127Z 06005KT 19/16 A2958 RMK A01 T01930155  RH  078%=      5-min Rain = 0
KLE1 190128Z 06006KT 19/15 A2958 RMK A01 T01940154  RH  078%=      5-min Rain = 0
KLE1 190129Z 06007KT 19/15 A2958 RMK A01 T01940154  RH  078%=      5-min Rain = 0
KLE1 190130Z 06007KT 19/15 A2958 RMK A01 T01940154  RH  077%=      5-min Rain = 0
KLE1 190131Z 06007KT 20/16 A2958 RMK A01 T01950155  RH  078%=      5-min Rain = 0
KLE1 190132Z 05007KT 19/16 A2958 RMK A01 T01940156  RH  078%=      5-min Rain = 0
KLE1 190133Z 04007KT 19/16 A2958 RMK A01 T01940156  RH  079%=      5-min Rain = 0
KLE1 190134Z 04007KT 19/16 A2958 RMK A01 T01930157  RH  080%=      5-min Rain = 0
KLE1 190135Z 04007KT 19/16 A2958 RMK A01 T01920156  RH  080%=      5-min Rain = 0
KLE1 190136Z 04006KT 19/16 A2958 RMK A01 T01910155  RH  079%=      5-min Rain = 0
KLE1 190137Z 04005KT 19/16 A2958 RMK A01 T01930155  RH  079%=      5-min Rain = 0
KLE1 190138Z 04006KT 19/16 A2958 RMK A01 T01940155  RH  078%=      5-min Rain = 0
KLE1 190139Z 04006KT 20/16 A2958 RMK A01 T01950155  RH  078%=      5-min Rain = 0
KLE1 190140Z 03006KT 20/15 A2958 RMK A01 T01950154  RH  077%=      5-min Rain = 0
KLE1 190141Z 04006KT 20/16 A2958 RMK A01 T01960155  RH  077%=      5-min Rain = 0
KLE1 190142Z 04007KT 20/15 A2958 RMK A01 T01970154  RH  076%=      5-min Rain = 0
KLE1 190143Z 05006KT 20/15 A2958 RMK A01 T01980154  RH  076%=      5-min Rain = 0
KLE1 190144Z 04007KT 20/16 A2958 RMK A01 T01980155  RH  076%=      5-min Rain = 0
KLE1 190145Z 04007KT 20/15 A2958 RMK A01 T01980154  RH  076%=      5-min Rain = 0
KLE1 190146Z 04007KT 20/15 A2958 RMK A01 T01980154  RH  076%=      5-min Rain = 0
KLE1 190147Z 04008KT 20/15 A2958 RMK A01 T01980154  RH  076%=      5-min Rain = 0
KLE1 190148Z 05008KT 20/16 A2958 RMK A01 T01980155  RH  076%=      5-min Rain = 0
KLE1 190149Z 04007KT 20/16 A2958 RMK A01 T01970155  RH  077%=      5-min Rain = 0
KLE1 190150Z 03007KT 20/16 A2958 RMK A01 T01970156  RH  077%=      5-min Rain = 0
KLE1 190151Z 02007KT 20/16 A2958 RMK A01 T01960156  RH  078%=      5-min Rain = 0
KLE1 190152Z 02007KT 20/16 A2959 RMK A01 T01950156  RH  078%=      5-min Rain = 0
KLE1 190153Z 02006KT 20/16 A2959 RMK A01 T01950156  RH  078%=      5-min Rain = 0
KLE1 190154Z 03005KT 19/16 A2959 RMK A01 T01940156  RH  079%=      5-min Rain = 0
KLE1 190155Z 02005KT 19/16 A2959 RMK A01 T01930155  RH  079%=      5-min Rain = 0
KLE1 190156Z 02006KT 19/16 A2959 RMK A01 T01930155  RH  079%=      5-min Rain = 0
KLE1 190157Z 01006KT 19/16 A2959 RMK A01 T01930155  RH  078%=      5-min Rain = 0
KLE1 190158Z 36005KT 19/15 A2959 RMK A01 T01930154  RH  078%=      5-min Rain = 0
KLE1 190159Z 31005KT 19/16 A296 RMK A01 T01940156  RH  079%=      5-min Rain = 0
KLE1 190200Z 26014KT 19/16 A2961 RMK A01 T01930159  RH  081%=      5-min Rain = 0
KLE1 190201Z 26014KT 19/16 A2961 RMK A01 T01900158  RH  082%=      5-min Rain = 0
KLE1 190202Z 26008KT 19/16 A2961 RMK A01 T01880157  RH  082%=      5-min Rain = 0
KLE1 190203Z 26009KT 19/16 A2961 RMK A01 T01880157  RH  082%=      5-min Rain = 0
KLE1 190204Z 27010KT 19/16 A2961 RMK A01 T01880156  RH  081%=      5-min Rain = 0
KLE1 190205Z 27011KT 19/16 A2961 RMK A01 T01890155  RH  081%=      5-min Rain = 0
KLE1 190206Z 27011KT 19/16 A2961 RMK A01 T01890156  RH  081%=      5-min Rain = 0
KLE1 190207Z 26010KT 19/16 A2961 RMK A01 T01870155  RH  082%=      5-min Rain = 0
KLE1 190208Z 25008KT 19/16 A2961 RMK A01 T01850155  RH  082%=      5-min Rain = 0
KLE1 190209Z 25007KT 18/16 A2961 RMK A01 T01840155  RH  083%=      5-min Rain = 0
KLE1 190210Z 25007KT 18/16 A2961 RMK A01 T01830155  RH  083%=      5-min Rain = 0
KLE1 190211Z 26007KT 18/15 A2961 RMK A01 T01830154  RH  084%=      5-min Rain = 0
KLE1 190212Z 27008KT 18/16 A2961 RMK A01 T01820155  RH  084%=      5-min Rain = 0
KLE1 190213Z 27007KT 18/16 A2961 RMK A01 T01810155  RH  085%=      5-min Rain = 0
KLE1 190214Z 27006KT 18/16 A2961 RMK A01 T01810156  RH  085%=      5-min Rain = 0
KLE1 190215Z 27005KT 18/16 A2961 RMK A01 T01810156  RH  086%=      5-min Rain = 0
KLE1 190216Z 27005KT 18/16 A2961 RMK A01 T01800156  RH  086%=      5-min Rain = 0
KLE1 190217Z 27005KT 18/16 A2961 RMK A01 T01800155  RH  085%=      5-min Rain = 0
KLE1 190218Z 26005KT 18/16 A2961 RMK A01 T01810155  RH  085%=      5-min Rain = 0
KLE1 190219Z 26006KT 18/16 A2961 RMK A01 T01810155  RH  085%=      5-min Rain = 0
KLE1 190220Z 26007KT 18/16 A2962 RMK A01 T01810156  RH  085%=      5-min Rain = 0
KLE1 190221Z 26006KT 18/16 A2962 RMK A01 T01810156  RH  085%=      5-min Rain = 0
KLE1 190222Z 27006KT 18/16 A2962 RMK A01 T01810156  RH  086%=      5-min Rain = 0
KLE1 190223Z 27005KT 18/16 A2962 RMK A01 T01800156  RH  086%=      5-min Rain = 0
KLE1 190224Z 28004KT 18/16 A2962 RMK A01 T01800156  RH  085%=      5-min Rain = 0
KLE1 190225Z 28004KT 18/16 A2962 RMK A01 T01810155  RH  085%=      5-min Rain = 0
KLE1 190226Z 28003KT 18/16 A2962 RMK A01 T01810155  RH  085%=      5-min Rain = 0
KLE1 190227Z 28003KT 18/16 A2962 RMK A01 T01810155  RH  085%=      5-min Rain = 0
KLE1 190228Z 29003KT 18/16 A2962 RMK A01 T01810156  RH  085%=      5-min Rain = 0
KLE1 190229Z 28002KT 18/16 A2962 RMK A01 T01820156  RH  085%=      5-min Rain = 0
KLE1 190230Z 30003KT 18/15 A2962 RMK A01 T01820154  RH  084%=      5-min Rain = 0
KLE1 190231Z 29003KT 18/16 A2963 RMK A01 T01830155  RH  084%=      5-min Rain = 0
KLE1 190232Z 28002KT 18/16 A2962 RMK A01 T01840155  RH  083%=      5-min Rain = 0
KLE1 190233Z 21003KT 18/16 A2963 RMK A01 T01840155  RH  083%=      5-min Rain = 0
KLE1 190234Z 22006KT 18/16 A2963 RMK A01 T01830156  RH  084%=      5-min Rain = 0
KLE1 190235Z 22008KT 18/16 A2964 RMK A01 T01800155  RH  085%=      5-min Rain = 0
KLE1 190236Z 21006KT 18/16 A2964 RMK A01 T01790156  RH  086%=      5-min Rain = 0
KLE1 190237Z 21005KT 18/16 A2964 RMK A01 T01790157  RH  087%=      5-min Rain = 0
KLE1 190238Z 21006KT 18/16 A2964 RMK A01 T01790158  RH  087%=      5-min Rain = 0
KLE1 190239Z 20007KT 18/16 A2965 RMK A01 T01790159  RH  088%=      5-min Rain = 0
KLE1 190240Z 19008KT 18/16 A2965 RMK A01 T01780160  RH  089%=      5-min Rain = 0
KLE1 190241Z 19007KT 18/16 A2965 RMK A01 T01780161  RH  089%=      5-min Rain = 0
KLE1 190242Z 18008KT 18/16 A2965 RMK A01 T01780162  RH  090%=      5-min Rain = 0
KLE1 190243Z 18009KT 18/16 A2965 RMK A01 T01780162  RH  090%=      5-min Rain = 0
KLE1 190244Z 18010KT 18/16 A2966 RMK A01 T01780161  RH  090%=      5-min Rain = 0
KLE1 190245Z 18010KT 18/16 A2966 RMK A01 T01790161  RH  089%=      5-min Rain = 0
KLE1 190246Z 18010KT 18/16 A2966 RMK A01 T01790161  RH  089%=      5-min Rain = 0
KLE1 190247Z 18010KT 18/16 A2966 RMK A01 T01790159  RH  088%=      5-min Rain = 0
KLE1 190248Z 18011KT 18/16 A2966 RMK A01 T01800158  RH  087%=      5-min Rain = 0
KLE1 190249Z 19013KT 18/16 A2966 RMK A01 T01820155  RH  084%=      5-min Rain = 0
KLE1 190250Z 20012KT 19/15 A2967 RMK A01 T01870151  RH  080%=      5-min Rain = 0
KLE1 190251Z 19016KT 19/15 A2967 RMK A01 T01900151  RH  078%=      5-min Rain = 0
KLE1 190252Z 20018KT 19/15 A2967 RMK A01 T01920148  RH  076%=      5-min Rain = 0
KLE1 190253Z 20017KT 20/15 A2967 RMK A01 T01950146  RH  074%=      5-min Rain = 0
KLE1 190254Z 20015KT 20/15 A2968 RMK A01 T01970145  RH  072%=      5-min Rain = 0
KLE1 190255Z 21015KT 20/14 A2968 RMK A01 T01980143  RH  071%=      5-min Rain = 0
KLE1 190256Z 21012KT 20/14 A2968 RMK A01 T01990138  RH  068%=      5-min Rain = 0
KLE1 190257Z 21009KT 20/14 A2968 RMK A01 T02000139  RH  068%=      5-min Rain = 0
KLE1 190258Z 22008KT 20/14 A2967 RMK A01 T02000137  RH  067%=      5-min Rain = 0
KLE1 190259Z 22007KT 20/14 A2967 RMK A01 T02000138  RH  067%=      5-min Rain = 0
KLE1 190300Z 22009KT 20/13 A2967 RMK A01 T02000133  RH  065%=      5-min Rain = 0.01
KLE1 190301Z 22007KT 20/13 A2967 RMK A01 T02020133  RH  065%=      5-min Rain = 0
KLE1 190302Z 21006KT 20/13 A2966 RMK A01 T02010133  RH  065%=      5-min Rain = 0.01
KLE1 190303Z 22004KT 20/13 A2966 RMK A01 T02010134  RH  065%=      5-min Rain = 0
KLE1 190304Z 24002KT 20/13 A2966 RMK A01 T02000134  RH  066%=      5-min Rain = 0
KLE1 190305Z 29002KT 20/13 A2965 RMK A01 T01990130  RH  064%=      5-min Rain = 0.02
KLE1 190306Z 33005KT 20/13 A2965 RMK A01 T01990132  RH  065%=      5-min Rain = 0
KLE1 190307Z 34007KT 20/14 A2965 RMK A01 T01970141  RH  070%=      5-min Rain = 0
KLE1 190308Z 33010KT 19/13 A2965 RMK A01 T01940134  RH  068%=      5-min Rain = 0
KLE1 190309Z 33010KT 19/13 A2964 RMK A01 T01940133  RH  068%=      5-min Rain = 0
KLE1 190310Z 35010KT 20/14 A2964 RMK A01 T01950135  RH  068%=      5-min Rain = 0
KLE1 190311Z 35010KT 19/13 A2963 RMK A01 T01940134  RH  068%=      5-min Rain = 0
KLE1 190312Z 35010KT 19/13 A2963 RMK A01 T01940133  RH  067%=      5-min Rain = 0
KLE1 190313Z 34009KT 19/13 A2963 RMK A01 T01940134  RH  068%=      5-min Rain = 0
KLE1 190314Z 34010KT 19/13 A2963 RMK A01 T01940134  RH  068%=      5-min Rain = 0
KLE1 190315Z 34010KT 19/13 A2963 RMK A01 T01920134  RH  069%=      5-min Rain = 0
KLE1 190316Z 35009KT 19/13 A2963 RMK A01 T01920133  RH  069%=      5-min Rain = 0
KLE1 190317Z 35010KT 19/13 A2963 RMK A01 T01920133  RH  069%=      5-min Rain = 0
KLE1 190318Z 35009KT 19/13 A2963 RMK A01 T01910132  RH  068%=      5-min Rain = 0
KLE1 190319Z 36008KT 19/13 A2963 RMK A01 T01920131  RH  068%=      5-min Rain = 0
KLE1 190320Z 36008KT 19/13 A2963 RMK A01 T01920134  RH  069%=      5-min Rain = 0
KLE1 190321Z 35007KT 19/13 A2963 RMK A01 T01910134  RH  070%=      5-min Rain = 0
KLE1 190322Z 35006KT 19/13 A2963 RMK A01 T01910134  RH  070%=      5-min Rain = 0
KLE1 190323Z 35006KT 19/13 A2963 RMK A01 T01910133  RH  069%=      5-min Rain = 0
KLE1 190324Z 35006KT 19/13 A2963 RMK A01 T01910131  RH  068%=      5-min Rain = 0
KLE1 190325Z 34007KT 19/13 A2963 RMK A01 T01920130  RH  067%=      5-min Rain = 0
KLE1 190326Z 33006KT 19/13 A2963 RMK A01 T01940128  RH  066%=      5-min Rain = 0
KLE1 190327Z 33006KT 20/13 A2963 RMK A01 T01950127  RH  065%=      5-min Rain = 0
KLE1 190328Z 33006KT 20/13 A2963 RMK A01 T01960127  RH  064%=      5-min Rain = 0
KLE1 190329Z 34005KT 20/13 A2963 RMK A01 T01960125  RH  064%=      5-min Rain = 0
KLE1 190330Z 34006KT 20/13 A2963 RMK A01 T01970125  RH  063%=      5-min Rain = 0
KLE1 190331Z 34006KT 20/13 A2963 RMK A01 T01980126  RH  063%=      5-min Rain = 0
KLE1 190332Z 33007KT 20/13 A2963 RMK A01 T01980128  RH  064%=      5-min Rain = 0
KLE1 190333Z 33006KT 20/13 A2963 RMK A01 T01980128  RH  064%=      5-min Rain = 0
KLE1 190334Z 32006KT 20/13 A2963 RMK A01 T01960128  RH  065%=      5-min Rain = 0
KLE1 190335Z 33005KT 20/13 A2963 RMK A01 T01960127  RH  065%=      5-min Rain = 0
KLE1 190336Z 32005KT 20/13 A2963 RMK A01 T01950128  RH  065%=      5-min Rain = 0
KLE1 190337Z 32004KT 20/13 A2963 RMK A01 T01950126  RH  065%=      5-min Rain = 0
KLE1 190338Z 35004KT 20/13 A2963 RMK A01 T01950125  RH  064%=      5-min Rain = 0
KLE1 190339Z 33003KT 20/13 A2963 RMK A01 T01950125  RH  064%=      5-min Rain = 0
KLE1 190340Z 33003KT 20/12 A2963 RMK A01 T01960121  RH  062%=      5-min Rain = 0
KLE1 190341Z 33003KT 20/12 A2963 RMK A01 T01980120  RH  060%=      5-min Rain = 0
KLE1 190342Z 32003KT 20/12 A2963 RMK A01 T02010118  RH  059%=      5-min Rain = 0
KLE1 190343Z 32002KT 20/12 A2963 RMK A01 T02030119  RH  059%=      5-min Rain = 0
KLE1 190344Z 31002KT 20/12 A2963 RMK A01 T02040118  RH  058%=      5-min Rain = 0
KLE1 190345Z 31002KT 21/12 A2963 RMK A01 T02050116  RH  057%=      5-min Rain = 0
KLE1 190346Z 31002KT 21/12 A2963 RMK A01 T02050115  RH  056%=      5-min Rain = 0
KLE1 190347Z 31002KT 21/11 A2963 RMK A01 T02070113  RH  055%=      5-min Rain = 0
KLE1 190348Z 30002KT 21/11 A2963 RMK A01 T02070111  RH  054%=      5-min Rain = 0
KLE1 190349Z 28002KT 21/11 A2963 RMK A01 T02080110  RH  053%=      5-min Rain = 0
KLE1 190350Z 28002KT 21/11 A2963 RMK A01 T02090110  RH  053%=      5-min Rain = 0
KLE1 190351Z 28003KT 21/11 A2963 RMK A01 T02100109  RH  053%=      5-min Rain = 0
KLE1 190352Z 27003KT 21/11 A2963 RMK A01 T02110110  RH  052%=      5-min Rain = 0
KLE1 190353Z 26003KT 21/11 A2963 RMK A01 T02110110  RH  052%=      5-min Rain = 0
KLE1 190354Z 26003KT 21/11 A2963 RMK A01 T02120110  RH  052%=      5-min Rain = 0
KLE1 190355Z 25002KT 21/11 A2963 RMK A01 T02120111  RH  052%=      5-min Rain = 0
KLE1 190356Z 25002KT 21/11 A2963 RMK A01 T02120112  RH  053%=      5-min Rain = 0
KLE1 190357Z 24002KT 21/11 A2962 RMK A01 T02120112  RH  053%=      5-min Rain = 0
KLE1 190358Z 23001KT 21/11 A2962 RMK A01 T02120112  RH  053%=      5-min Rain = 0
KLE1 190359Z 23001KT 21/11 A2962 RMK A01 T02120112  RH  053%=      5-min Rain = 0
KLE1 190400Z 23000KT 21/11 A2962 RMK A01 T02110112  RH  053%=      5-min Rain = 0
KLE1 190401Z 23000KT 21/11 A2962 RMK A01 T02110113  RH  054%=      5-min Rain = 0
KLE1 190402Z 00000KT 21/11 A2962 RMK A01 T02100114  RH  054%=      5-min Rain = 0
KLE1 190403Z 00000KT 21/11 A2962 RMK A01 T02090114  RH  055%=      5-min Rain = 0
KLE1 190404Z 00000KT 21/11 A2963 RMK A01 T02090114  RH  054%=      5-min Rain = 0
KLE1 190405Z 00000KT 21/11 A2963 RMK A01 T02080112  RH  054%=      5-min Rain = 0
KLE1 190406Z 00000KT 21/11 A2963 RMK A01 T02090110  RH  053%=      5-min Rain = 0
KLE1 190407Z 07000KT 21/13 A2963 RMK A01 T02080125  RH  059%=      5-min Rain = 0
KLE1 190408Z 07000KT 20/13 A2963 RMK A01 T02040128  RH  062%=      5-min Rain = 0
KLE1 190409Z 28001KT 20/12 A2963 RMK A01 T02020117  RH  058%=      5-min Rain = 0
KLE1 190410Z 26000KT 20/11 A2963 RMK A01 T02010113  RH  057%=      5-min Rain = 0
KLE1 190411Z 24001KT 20/11 A2963 RMK A01 T02010113  RH  057%=      5-min Rain = 0
KLE1 190412Z 24003KT 20/11 A2963 RMK A01 T02020113  RH  057%=      5-min Rain = 0
KLE1 190413Z 23003KT 20/12 A2963 RMK A01 T02030115  RH  057%=      5-min Rain = 0
KLE1 190414Z 22004KT 20/12 A2963 RMK A01 T02030116  RH  057%=      5-min Rain = 0
KLE1 190415Z 22006KT 20/12 A2963 RMK A01 T02030117  RH  058%=      5-min Rain = 0
KLE1 190416Z 21008KT 20/12 A2963 RMK A01 T02000119  RH  060%=      5-min Rain = 0
KLE1 190417Z 21008KT 20/12 A2963 RMK A01 T01950124  RH  064%=      5-min Rain = 0
KLE1 190418Z 21008KT 19/13 A2963 RMK A01 T01890129  RH  068%=      5-min Rain = 0
KLE1 190419Z 21009KT 18/13 A2964 RMK A01 T01830134  RH  073%=      5-min Rain = 0
KLE1 190420Z 21009KT 18/14 A2964 RMK A01 T01790136  RH  076%=      5-min Rain = 0
KLE1 190421Z 21008KT 18/14 A2963 RMK A01 T01770136  RH  077%=      5-min Rain = 0
KLE1 190422Z 21009KT 18/14 A2963 RMK A01 T01750136  RH  078%=      5-min Rain = 0
KLE1 190423Z 21008KT 17/14 A2963 RMK A01 T01740137  RH  079%=      5-min Rain = 0
KLE1 190424Z 20009KT 17/14 A2963 RMK A01 T01720136  RH  079%=      5-min Rain = 0
KLE1 190425Z 20008KT 17/14 A2963 RMK A01 T01710137  RH  080%=      5-min Rain = 0
KLE1 190426Z 20008KT 17/14 A2963 RMK A01 T01700136  RH  080%=      5-min Rain = 0
KLE1 190427Z 20008KT 17/14 A2963 RMK A01 T01690135  RH  080%=      5-min Rain = 0
KLE1 190428Z 20007KT 17/14 A2963 RMK A01 T01680136  RH  081%=      5-min Rain = 0
KLE1 190429Z 20007KT 17/14 A2963 RMK A01 T01680136  RH  081%=      5-min Rain = 0
KLE1 190430Z 20007KT 17/14 A2964 RMK A01 T01670135  RH  082%=      5-min Rain = 0
KLE1 190431Z 21007KT 17/14 A2964 RMK A01 T01660135  RH  082%=      5-min Rain = 0
KLE1 190432Z 22007KT 17/13 A2964 RMK A01 T01660133  RH  081%=      5-min Rain = 0
KLE1 190433Z 21006KT 17/13 A2964 RMK A01 T01660131  RH  080%=      5-min Rain = 0
KLE1 190434Z 22006KT 17/13 A2964 RMK A01 T01680129  RH  078%=      5-min Rain = 0
KLE1 190435Z 22006KT 17/13 A2964 RMK A01 T01690128  RH  077%=      5-min Rain = 0
KLE1 190436Z 22006KT 17/13 A2964 RMK A01 T01700128  RH  076%=      5-min Rain = 0
KLE1 190437Z 22005KT 17/13 A2963 RMK A01 T01700127  RH  076%=      5-min Rain = 0
KLE1 190438Z 23006KT 17/13 A2964 RMK A01 T01710126  RH  075%=      5-min Rain = 0
KLE1 190439Z 24007KT 17/13 A2964 RMK A01 T01720126  RH  075%=      5-min Rain = 0
KLE1 190440Z 23006KT 17/13 A2964 RMK A01 T01720128  RH  075%=      5-min Rain = 0
KLE1 190441Z 24006KT 17/13 A2964 RMK A01 T01700128  RH  076%=      5-min Rain = 0
KLE1 190442Z 24006KT 17/13 A2964 RMK A01 T01690128  RH  077%=      5-min Rain = 0
KLE1 190443Z 24006KT 17/13 A2964 RMK A01 T01680128  RH  077%=      5-min Rain = 0
KLE1 190444Z 24005KT 17/13 A2964 RMK A01 T01680129  RH  078%=      5-min Rain = 0
KLE1 190445Z 24006KT 17/13 A2964 RMK A01 T01670128  RH  078%=      5-min Rain = 0
KLE1 190446Z 24007KT 17/13 A2964 RMK A01 T01660129  RH  079%=      5-min Rain = 0
KLE1 190447Z 24007KT 17/13 A2964 RMK A01 T01660129  RH  079%=      5-min Rain = 0
KLE1 190448Z 23007KT 17/13 A2964 RMK A01 T01660129  RH  079%=      5-min Rain = 0
KLE1 190449Z 23007KT 17/13 A2964 RMK A01 T01650128  RH  079%=      5-min Rain = 0
KLE1 190450Z 22006KT 17/13 A2964 RMK A01 T01650128  RH  079%=      5-min Rain = 0
KLE1 190451Z 23006KT 17/13 A2964 RMK A01 T01660128  RH  078%=      5-min Rain = 0
KLE1 190452Z 23006KT 17/13 A2964 RMK A01 T01670127  RH  077%=      5-min Rain = 0
KLE1 190453Z 23006KT 17/13 A2964 RMK A01 T01690126  RH  076%=      5-min Rain = 0
KLE1 190454Z 24005KT 17/13 A2964 RMK A01 T01700126  RH  075%=      5-min Rain = 0
KLE1 190455Z 23005KT 17/13 A2964 RMK A01 T01710126  RH  075%=      5-min Rain = 0
KLE1 190456Z 22006KT 17/13 A2964 RMK A01 T01710126  RH  075%=      5-min Rain = 0
KLE1 190457Z 22006KT 17/13 A2965 RMK A01 T01720125  RH  074%=      5-min Rain = 0
KLE1 190458Z 21006KT 17/13 A2965 RMK A01 T01710125  RH  074%=      5-min Rain = 0
KLE1 190459Z 20007KT 17/13 A2965 RMK A01 T01710126  RH  074%=      5-min Rain = 0

Page generated in 0.0815 seconds.